<?xml version="1.0" encoding="UTF-8" standalone="no" ?>
<gpx xmlns="http://www.topografix.com/GPX/1/1" xmlns:xsi="http://www.w3.org/2001/XMLSchema-instance" xsi:schemaLocation="http://www.topografix.com/GPX/1/1 http://www.topografix.com/GPX/1/1/gpx.xsd" version="1.1" creator="VisuGPX - https://www.visugpx.com">
  <metadata>
    <name>Rando de Chamaret 2008 - 37 km - </name>
  </metadata>
  <trk>
    <name><![CDATA[Rando de Chamaret 2008 - 37 km - 2527 - UtagawaVTT.com]]></name>
    <extensions>
      <line xmlns="http://www.topografix.com/GPX/gpx_style/0/2">
        <color>0000FF</color>
        <width>4</width>
      </line>
    </extensions>
    <trkseg>
      <trkpt lat="44.39676" lon="4.87731">
        <ele>177</ele>
        <time>2008-08-24T08:25:51Z</time>
      </trkpt>
      <trkpt lat="44.39674" lon="4.87703">
        <ele>177</ele>
        <time>2008-08-24T08:25:56Z</time>
      </trkpt>
      <trkpt lat="44.39693" lon="4.87613">
        <ele>177</ele>
        <time>2008-08-24T08:26:12Z</time>
      </trkpt>
      <trkpt lat="44.39683" lon="4.87548">
        <ele>178</ele>
        <time>2008-08-24T08:26:25Z</time>
      </trkpt>
      <trkpt lat="44.39665" lon="4.87523">
        <ele>179</ele>
        <time>2008-08-24T08:26:32Z</time>
      </trkpt>
      <trkpt lat="44.3967" lon="4.87503">
        <ele>180</ele>
        <time>2008-08-24T08:26:37Z</time>
      </trkpt>
      <trkpt lat="44.39685" lon="4.87435">
        <ele>183</ele>
        <time>2008-08-24T08:26:55Z</time>
      </trkpt>
      <trkpt lat="44.39685" lon="4.87366">
        <ele>186</ele>
        <time>2008-08-24T08:27:14Z</time>
      </trkpt>
      <trkpt lat="44.39685" lon="4.87284">
        <ele>188</ele>
        <time>2008-08-24T08:27:34Z</time>
      </trkpt>
      <trkpt lat="44.39665" lon="4.8722">
        <ele>188</ele>
        <time>2008-08-24T08:27:48Z</time>
      </trkpt>
      <trkpt lat="44.39625" lon="4.87109">
        <ele>191</ele>
        <time>2008-08-24T08:28:12Z</time>
      </trkpt>
      <trkpt lat="44.3958" lon="4.87012">
        <ele>194</ele>
        <time>2008-08-24T08:28:35Z</time>
      </trkpt>
      <trkpt lat="44.39556" lon="4.8693">
        <ele>196</ele>
        <time>2008-08-24T08:28:56Z</time>
      </trkpt>
      <trkpt lat="44.3956" lon="4.86898">
        <ele>194</ele>
        <time>2008-08-24T08:29:04Z</time>
      </trkpt>
      <trkpt lat="44.39571" lon="4.86892">
        <ele>193</ele>
        <time>2008-08-24T08:29:07Z</time>
      </trkpt>
      <trkpt lat="44.39601" lon="4.86894">
        <ele>188</ele>
        <time>2008-08-24T08:29:12Z</time>
      </trkpt>
      <trkpt lat="44.39659" lon="4.86888">
        <ele>186</ele>
        <time>2008-08-24T08:29:21Z</time>
      </trkpt>
      <trkpt lat="44.39663" lon="4.86885">
        <ele>185</ele>
        <time>2008-08-24T08:29:23Z</time>
      </trkpt>
      <trkpt lat="44.39622" lon="4.8687">
        <ele>183</ele>
        <time>2008-08-24T08:29:32Z</time>
      </trkpt>
      <trkpt lat="44.3961" lon="4.86868">
        <ele>182</ele>
        <time>2008-08-24T08:29:34Z</time>
      </trkpt>
      <trkpt lat="44.3958" lon="4.86857">
        <ele>182</ele>
        <time>2008-08-24T08:29:39Z</time>
      </trkpt>
      <trkpt lat="44.39573" lon="4.8686">
        <ele>182</ele>
        <time>2008-08-24T08:29:49Z</time>
      </trkpt>
      <trkpt lat="44.39571" lon="4.86857">
        <ele>183</ele>
        <time>2008-08-24T08:30:07Z</time>
      </trkpt>
      <trkpt lat="44.39567" lon="4.86857">
        <ele>182</ele>
        <time>2008-08-24T08:30:11Z</time>
      </trkpt>
      <trkpt lat="44.39541" lon="4.86847">
        <ele>180</ele>
        <time>2008-08-24T08:30:16Z</time>
      </trkpt>
      <trkpt lat="44.39436" lon="4.86802">
        <ele>177</ele>
        <time>2008-08-24T08:30:34Z</time>
      </trkpt>
      <trkpt lat="44.39316" lon="4.86785">
        <ele>176</ele>
        <time>2008-08-24T08:30:53Z</time>
      </trkpt>
      <trkpt lat="44.39208" lon="4.86778">
        <ele>177</ele>
        <time>2008-08-24T08:31:10Z</time>
      </trkpt>
      <trkpt lat="44.39185" lon="4.86761">
        <ele>176</ele>
        <time>2008-08-24T08:31:14Z</time>
      </trkpt>
      <trkpt lat="44.39129" lon="4.86716">
        <ele>175</ele>
        <time>2008-08-24T08:31:24Z</time>
      </trkpt>
      <trkpt lat="44.39116" lon="4.86709">
        <ele>175</ele>
        <time>2008-08-24T08:31:26Z</time>
      </trkpt>
      <trkpt lat="44.39011" lon="4.86729">
        <ele>174</ele>
        <time>2008-08-24T08:31:42Z</time>
      </trkpt>
      <trkpt lat="44.38962" lon="4.86731">
        <ele>175</ele>
        <time>2008-08-24T08:31:50Z</time>
      </trkpt>
      <trkpt lat="44.38942" lon="4.86733">
        <ele>174</ele>
        <time>2008-08-24T08:31:55Z</time>
      </trkpt>
      <trkpt lat="44.38936" lon="4.86724">
        <ele>175</ele>
        <time>2008-08-24T08:32:01Z</time>
      </trkpt>
      <trkpt lat="44.38932" lon="4.86718">
        <ele>175</ele>
        <time>2008-08-24T08:32:04Z</time>
      </trkpt>
      <trkpt lat="44.38932" lon="4.86712">
        <ele>176</ele>
        <time>2008-08-24T08:32:08Z</time>
      </trkpt>
      <trkpt lat="44.38934" lon="4.86705">
        <ele>177</ele>
        <time>2008-08-24T08:32:11Z</time>
      </trkpt>
      <trkpt lat="44.38944" lon="4.86679">
        <ele>180</ele>
        <time>2008-08-24T08:32:21Z</time>
      </trkpt>
      <trkpt lat="44.38947" lon="4.86664">
        <ele>182</ele>
        <time>2008-08-24T08:32:27Z</time>
      </trkpt>
      <trkpt lat="44.38949" lon="4.86626">
        <ele>185</ele>
        <time>2008-08-24T08:32:44Z</time>
      </trkpt>
      <trkpt lat="44.38949" lon="4.86619">
        <ele>186</ele>
        <time>2008-08-24T08:32:48Z</time>
      </trkpt>
      <trkpt lat="44.38947" lon="4.86589">
        <ele>189</ele>
        <time>2008-08-24T08:33:05Z</time>
      </trkpt>
      <trkpt lat="44.38938" lon="4.86574">
        <ele>192</ele>
        <time>2008-08-24T08:33:16Z</time>
      </trkpt>
      <trkpt lat="44.38929" lon="4.8657">
        <ele>195</ele>
        <time>2008-08-24T08:33:25Z</time>
      </trkpt>
      <trkpt lat="44.38929" lon="4.86568">
        <ele>195</ele>
        <time>2008-08-24T08:33:26Z</time>
      </trkpt>
      <trkpt lat="44.38914" lon="4.86559">
        <ele>198</ele>
        <time>2008-08-24T08:33:39Z</time>
      </trkpt>
      <trkpt lat="44.38899" lon="4.86557">
        <ele>202</ele>
        <time>2008-08-24T08:33:55Z</time>
      </trkpt>
      <trkpt lat="44.38871" lon="4.86544">
        <ele>205</ele>
        <time>2008-08-24T08:34:16Z</time>
      </trkpt>
      <trkpt lat="44.38848" lon="4.86506">
        <ele>207</ele>
        <time>2008-08-24T08:34:38Z</time>
      </trkpt>
      <trkpt lat="44.38818" lon="4.86448">
        <ele>210</ele>
        <time>2008-08-24T08:35:05Z</time>
      </trkpt>
      <trkpt lat="44.38781" lon="4.86439">
        <ele>210</ele>
        <time>2008-08-24T08:35:22Z</time>
      </trkpt>
      <trkpt lat="44.38747" lon="4.86385">
        <ele>212</ele>
        <time>2008-08-24T08:35:39Z</time>
      </trkpt>
      <trkpt lat="44.38691" lon="4.86312">
        <ele>215</ele>
        <time>2008-08-24T08:36:02Z</time>
      </trkpt>
      <trkpt lat="44.38663" lon="4.86291">
        <ele>213</ele>
        <time>2008-08-24T08:36:09Z</time>
      </trkpt>
      <trkpt lat="44.38648" lon="4.86276">
        <ele>213</ele>
        <time>2008-08-24T08:36:13Z</time>
      </trkpt>
      <trkpt lat="44.38582" lon="4.86237">
        <ele>211</ele>
        <time>2008-08-24T08:36:25Z</time>
      </trkpt>
      <trkpt lat="44.38554" lon="4.86233">
        <ele>210</ele>
        <time>2008-08-24T08:36:29Z</time>
      </trkpt>
      <trkpt lat="44.38528" lon="4.86242">
        <ele>208</ele>
        <time>2008-08-24T08:36:33Z</time>
      </trkpt>
      <trkpt lat="44.38515" lon="4.86246">
        <ele>207</ele>
        <time>2008-08-24T08:36:35Z</time>
      </trkpt>
      <trkpt lat="44.38468" lon="4.86259">
        <ele>206</ele>
        <time>2008-08-24T08:36:42Z</time>
      </trkpt>
      <trkpt lat="44.38444" lon="4.86261">
        <ele>206</ele>
        <time>2008-08-24T08:36:46Z</time>
      </trkpt>
      <trkpt lat="44.38354" lon="4.86244">
        <ele>207</ele>
        <time>2008-08-24T08:37:01Z</time>
      </trkpt>
      <trkpt lat="44.38286" lon="4.86177">
        <ele>209</ele>
        <time>2008-08-24T08:37:19Z</time>
      </trkpt>
      <trkpt lat="44.38266" lon="4.86149">
        <ele>210</ele>
        <time>2008-08-24T08:37:25Z</time>
      </trkpt>
      <trkpt lat="44.38238" lon="4.8613">
        <ele>208</ele>
        <time>2008-08-24T08:37:31Z</time>
      </trkpt>
      <trkpt lat="44.38159" lon="4.86061">
        <ele>206</ele>
        <time>2008-08-24T08:37:45Z</time>
      </trkpt>
      <trkpt lat="44.3814" lon="4.86038">
        <ele>205</ele>
        <time>2008-08-24T08:37:49Z</time>
      </trkpt>
      <trkpt lat="44.38133" lon="4.86023">
        <ele>204</ele>
        <time>2008-08-24T08:37:51Z</time>
      </trkpt>
      <trkpt lat="44.3812" lon="4.85999">
        <ele>203</ele>
        <time>2008-08-24T08:37:54Z</time>
      </trkpt>
      <trkpt lat="44.38114" lon="4.85984">
        <ele>202</ele>
        <time>2008-08-24T08:37:56Z</time>
      </trkpt>
      <trkpt lat="44.38108" lon="4.85963">
        <ele>200</ele>
        <time>2008-08-24T08:37:59Z</time>
      </trkpt>
      <trkpt lat="44.38105" lon="4.85958">
        <ele>198</ele>
        <time>2008-08-24T08:38:01Z</time>
      </trkpt>
      <trkpt lat="44.38114" lon="4.85926">
        <ele>197</ele>
        <time>2008-08-24T08:38:12Z</time>
      </trkpt>
      <trkpt lat="44.38123" lon="4.85918">
        <ele>198</ele>
        <time>2008-08-24T08:38:16Z</time>
      </trkpt>
      <trkpt lat="44.38125" lon="4.8592">
        <ele>197</ele>
        <time>2008-08-24T08:38:33Z</time>
      </trkpt>
      <trkpt lat="44.38127" lon="4.85918">
        <ele>198</ele>
        <time>2008-08-24T08:40:31Z</time>
      </trkpt>
      <trkpt lat="44.38133" lon="4.85913">
        <ele>200</ele>
        <time>2008-08-24T08:40:45Z</time>
      </trkpt>
      <trkpt lat="44.38133" lon="4.85913">
        <ele>200</ele>
        <time>2008-08-24T08:40:46Z</time>
      </trkpt>
      <trkpt lat="44.38144" lon="4.85905">
        <ele>202</ele>
        <time>2008-08-24T08:40:52Z</time>
      </trkpt>
      <trkpt lat="44.38183" lon="4.85877">
        <ele>204</ele>
        <time>2008-08-24T08:41:07Z</time>
      </trkpt>
      <trkpt lat="44.38223" lon="4.85845">
        <ele>205</ele>
        <time>2008-08-24T08:41:21Z</time>
      </trkpt>
      <trkpt lat="44.38241" lon="4.85845">
        <ele>208</ele>
        <time>2008-08-24T08:41:31Z</time>
      </trkpt>
      <trkpt lat="44.38247" lon="4.85847">
        <ele>210</ele>
        <time>2008-08-24T08:41:35Z</time>
      </trkpt>
      <trkpt lat="44.38251" lon="4.85845">
        <ele>211</ele>
        <time>2008-08-24T08:41:37Z</time>
      </trkpt>
      <trkpt lat="44.38266" lon="4.85836">
        <ele>211</ele>
        <time>2008-08-24T08:41:45Z</time>
      </trkpt>
      <trkpt lat="44.38281" lon="4.8584">
        <ele>214</ele>
        <time>2008-08-24T08:41:54Z</time>
      </trkpt>
      <trkpt lat="44.38305" lon="4.85827">
        <ele>217</ele>
        <time>2008-08-24T08:42:07Z</time>
      </trkpt>
      <trkpt lat="44.38324" lon="4.85817">
        <ele>220</ele>
        <time>2008-08-24T08:42:19Z</time>
      </trkpt>
      <trkpt lat="44.38341" lon="4.85812">
        <ele>223</ele>
        <time>2008-08-24T08:42:30Z</time>
      </trkpt>
      <trkpt lat="44.38346" lon="4.85808">
        <ele>223</ele>
        <time>2008-08-24T08:42:34Z</time>
      </trkpt>
      <trkpt lat="44.38335" lon="4.85802">
        <ele>220</ele>
        <time>2008-08-24T08:42:39Z</time>
      </trkpt>
      <trkpt lat="44.38324" lon="4.85785">
        <ele>215</ele>
        <time>2008-08-24T08:42:44Z</time>
      </trkpt>
      <trkpt lat="44.38316" lon="4.85772">
        <ele>212</ele>
        <time>2008-08-24T08:42:47Z</time>
      </trkpt>
      <trkpt lat="44.38311" lon="4.85761">
        <ele>208</ele>
        <time>2008-08-24T08:42:49Z</time>
      </trkpt>
      <trkpt lat="44.38294" lon="4.85746">
        <ele>204</ele>
        <time>2008-08-24T08:42:53Z</time>
      </trkpt>
      <trkpt lat="44.38292" lon="4.85746">
        <ele>203</ele>
        <time>2008-08-24T08:42:54Z</time>
      </trkpt>
      <trkpt lat="44.38286" lon="4.85746">
        <ele>202</ele>
        <time>2008-08-24T08:42:56Z</time>
      </trkpt>
      <trkpt lat="44.38296" lon="4.85733">
        <ele>202</ele>
        <time>2008-08-24T08:43:03Z</time>
      </trkpt>
      <trkpt lat="44.38361" lon="4.85675">
        <ele>203</ele>
        <time>2008-08-24T08:43:25Z</time>
      </trkpt>
      <trkpt lat="44.38384" lon="4.85656">
        <ele>201</ele>
        <time>2008-08-24T08:43:36Z</time>
      </trkpt>
      <trkpt lat="44.38393" lon="4.85639">
        <ele>198</ele>
        <time>2008-08-24T08:43:43Z</time>
      </trkpt>
      <trkpt lat="44.38395" lon="4.85637">
        <ele>198</ele>
        <time>2008-08-24T08:43:44Z</time>
      </trkpt>
      <trkpt lat="44.38399" lon="4.85628">
        <ele>196</ele>
        <time>2008-08-24T08:43:48Z</time>
      </trkpt>
      <trkpt lat="44.38399" lon="4.85615">
        <ele>194</ele>
        <time>2008-08-24T08:43:50Z</time>
      </trkpt>
      <trkpt lat="44.38397" lon="4.85598">
        <ele>192</ele>
        <time>2008-08-24T08:43:52Z</time>
      </trkpt>
      <trkpt lat="44.3838" lon="4.85589">
        <ele>193</ele>
        <time>2008-08-24T08:44:01Z</time>
      </trkpt>
      <trkpt lat="44.3838" lon="4.85585">
        <ele>192</ele>
        <time>2008-08-24T08:44:20Z</time>
      </trkpt>
      <trkpt lat="44.38354" lon="4.85587">
        <ele>193</ele>
        <time>2008-08-24T08:44:27Z</time>
      </trkpt>
      <trkpt lat="44.3826" lon="4.85587">
        <ele>191</ele>
        <time>2008-08-24T08:44:42Z</time>
      </trkpt>
      <trkpt lat="44.38221" lon="4.85589">
        <ele>190</ele>
        <time>2008-08-24T08:44:48Z</time>
      </trkpt>
      <trkpt lat="44.3815" lon="4.85604">
        <ele>187</ele>
        <time>2008-08-24T08:44:58Z</time>
      </trkpt>
      <trkpt lat="44.38116" lon="4.85615">
        <ele>184</ele>
        <time>2008-08-24T08:45:03Z</time>
      </trkpt>
      <trkpt lat="44.38097" lon="4.85622">
        <ele>182</ele>
        <time>2008-08-24T08:45:06Z</time>
      </trkpt>
      <trkpt lat="44.37966" lon="4.85652">
        <ele>179</ele>
        <time>2008-08-24T08:45:23Z</time>
      </trkpt>
      <trkpt lat="44.37906" lon="4.85662">
        <ele>178</ele>
        <time>2008-08-24T08:45:31Z</time>
      </trkpt>
      <trkpt lat="44.37844" lon="4.85675">
        <ele>175</ele>
        <time>2008-08-24T08:45:39Z</time>
      </trkpt>
      <trkpt lat="44.37796" lon="4.8569">
        <ele>173</ele>
        <time>2008-08-24T08:45:45Z</time>
      </trkpt>
      <trkpt lat="44.37758" lon="4.85697">
        <ele>172</ele>
        <time>2008-08-24T08:45:50Z</time>
      </trkpt>
      <trkpt lat="44.3773" lon="4.85707">
        <ele>171</ele>
        <time>2008-08-24T08:45:54Z</time>
      </trkpt>
      <trkpt lat="44.37603" lon="4.85712">
        <ele>168</ele>
        <time>2008-08-24T08:46:11Z</time>
      </trkpt>
      <trkpt lat="44.37584" lon="4.85712">
        <ele>168</ele>
        <time>2008-08-24T08:46:16Z</time>
      </trkpt>
      <trkpt lat="44.37541" lon="4.85645">
        <ele>169</ele>
        <time>2008-08-24T08:46:31Z</time>
      </trkpt>
      <trkpt lat="44.37451" lon="4.85549">
        <ele>169</ele>
        <time>2008-08-24T08:46:52Z</time>
      </trkpt>
      <trkpt lat="44.37442" lon="4.85538">
        <ele>168</ele>
        <time>2008-08-24T08:46:54Z</time>
      </trkpt>
      <trkpt lat="44.37397" lon="4.85501">
        <ele>167</ele>
        <time>2008-08-24T08:47:04Z</time>
      </trkpt>
      <trkpt lat="44.37395" lon="4.85484">
        <ele>168</ele>
        <time>2008-08-24T08:47:09Z</time>
      </trkpt>
      <trkpt lat="44.37408" lon="4.85437">
        <ele>172</ele>
        <time>2008-08-24T08:47:21Z</time>
      </trkpt>
      <trkpt lat="44.37391" lon="4.85353">
        <ele>175</ele>
        <time>2008-08-24T08:47:38Z</time>
      </trkpt>
      <trkpt lat="44.37391" lon="4.85347">
        <ele>176</ele>
        <time>2008-08-24T08:47:39Z</time>
      </trkpt>
      <trkpt lat="44.37376" lon="4.85285">
        <ele>178</ele>
        <time>2008-08-24T08:47:54Z</time>
      </trkpt>
      <trkpt lat="44.37372" lon="4.85257">
        <ele>178</ele>
        <time>2008-08-24T08:48:01Z</time>
      </trkpt>
      <trkpt lat="44.37395" lon="4.8522">
        <ele>180</ele>
        <time>2008-08-24T08:48:11Z</time>
      </trkpt>
      <trkpt lat="44.37436" lon="4.85184">
        <ele>183</ele>
        <time>2008-08-24T08:48:26Z</time>
      </trkpt>
      <trkpt lat="44.37447" lon="4.85175">
        <ele>185</ele>
        <time>2008-08-24T08:48:30Z</time>
      </trkpt>
      <trkpt lat="44.37479" lon="4.8516">
        <ele>188</ele>
        <time>2008-08-24T08:48:42Z</time>
      </trkpt>
      <trkpt lat="44.3753" lon="4.85126">
        <ele>190</ele>
        <time>2008-08-24T08:49:03Z</time>
      </trkpt>
      <trkpt lat="44.37573" lon="4.85107">
        <ele>192</ele>
        <time>2008-08-24T08:49:19Z</time>
      </trkpt>
      <trkpt lat="44.37599" lon="4.85102">
        <ele>195</ele>
        <time>2008-08-24T08:49:30Z</time>
      </trkpt>
      <trkpt lat="44.37601" lon="4.85102">
        <ele>195</ele>
        <time>2008-08-24T08:49:31Z</time>
      </trkpt>
      <trkpt lat="44.37629" lon="4.85091">
        <ele>198</ele>
        <time>2008-08-24T08:49:48Z</time>
      </trkpt>
      <trkpt lat="44.37655" lon="4.85049">
        <ele>201</ele>
        <time>2008-08-24T08:50:03Z</time>
      </trkpt>
      <trkpt lat="44.37663" lon="4.85023">
        <ele>199</ele>
        <time>2008-08-24T08:50:10Z</time>
      </trkpt>
      <trkpt lat="44.37668" lon="4.85008">
        <ele>201</ele>
        <time>2008-08-24T08:50:14Z</time>
      </trkpt>
      <trkpt lat="44.37696" lon="4.84971">
        <ele>204</ele>
        <time>2008-08-24T08:50:29Z</time>
      </trkpt>
      <trkpt lat="44.37708" lon="4.84956">
        <ele>204</ele>
        <time>2008-08-24T08:50:36Z</time>
      </trkpt>
      <trkpt lat="44.37704" lon="4.84946">
        <ele>202</ele>
        <time>2008-08-24T08:50:39Z</time>
      </trkpt>
      <trkpt lat="44.37732" lon="4.84896">
        <ele>203</ele>
        <time>2008-08-24T08:50:50Z</time>
      </trkpt>
      <trkpt lat="44.37751" lon="4.84868">
        <ele>206</ele>
        <time>2008-08-24T08:50:58Z</time>
      </trkpt>
      <trkpt lat="44.37809" lon="4.84791">
        <ele>210</ele>
        <time>2008-08-24T08:51:24Z</time>
      </trkpt>
      <trkpt lat="44.37816" lon="4.84778">
        <ele>213</ele>
        <time>2008-08-24T08:51:28Z</time>
      </trkpt>
      <trkpt lat="44.37854" lon="4.8472">
        <ele>215</ele>
        <time>2008-08-24T08:51:51Z</time>
      </trkpt>
      <trkpt lat="44.37906" lon="4.84675">
        <ele>218</ele>
        <time>2008-08-24T08:52:15Z</time>
      </trkpt>
      <trkpt lat="44.37979" lon="4.84641">
        <ele>220</ele>
        <time>2008-08-24T08:52:42Z</time>
      </trkpt>
      <trkpt lat="44.38032" lon="4.84592">
        <ele>223</ele>
        <time>2008-08-24T08:53:03Z</time>
      </trkpt>
      <trkpt lat="44.38069" lon="4.84551">
        <ele>226</ele>
        <time>2008-08-24T08:53:17Z</time>
      </trkpt>
      <trkpt lat="44.38065" lon="4.84534">
        <ele>226</ele>
        <time>2008-08-24T08:53:20Z</time>
      </trkpt>
      <trkpt lat="44.38075" lon="4.84493">
        <ele>227</ele>
        <time>2008-08-24T08:53:29Z</time>
      </trkpt>
      <trkpt lat="44.38071" lon="4.84476">
        <ele>228</ele>
        <time>2008-08-24T08:53:34Z</time>
      </trkpt>
      <trkpt lat="44.38058" lon="4.8442">
        <ele>232</ele>
        <time>2008-08-24T08:53:54Z</time>
      </trkpt>
      <trkpt lat="44.38052" lon="4.84383">
        <ele>233</ele>
        <time>2008-08-24T08:54:06Z</time>
      </trkpt>
      <trkpt lat="44.38052" lon="4.84375">
        <ele>231</ele>
        <time>2008-08-24T08:54:09Z</time>
      </trkpt>
      <trkpt lat="44.38045" lon="4.84347">
        <ele>233</ele>
        <time>2008-08-24T08:54:25Z</time>
      </trkpt>
      <trkpt lat="44.38045" lon="4.84345">
        <ele>233</ele>
        <time>2008-08-24T08:54:26Z</time>
      </trkpt>
      <trkpt lat="44.38024" lon="4.84298">
        <ele>236</ele>
        <time>2008-08-24T08:54:42Z</time>
      </trkpt>
      <trkpt lat="44.37996" lon="4.84222">
        <ele>238</ele>
        <time>2008-08-24T08:55:05Z</time>
      </trkpt>
      <trkpt lat="44.38" lon="4.84201">
        <ele>238</ele>
        <time>2008-08-24T08:55:11Z</time>
      </trkpt>
      <trkpt lat="44.38017" lon="4.84192">
        <ele>238</ele>
        <time>2008-08-24T08:55:15Z</time>
      </trkpt>
      <trkpt lat="44.38065" lon="4.8421">
        <ele>238</ele>
        <time>2008-08-24T08:55:28Z</time>
      </trkpt>
      <trkpt lat="44.38093" lon="4.8425">
        <ele>238</ele>
        <time>2008-08-24T08:55:42Z</time>
      </trkpt>
      <trkpt lat="44.38095" lon="4.84246">
        <ele>240</ele>
        <time>2008-08-24T08:55:47Z</time>
      </trkpt>
      <trkpt lat="44.38077" lon="4.84184">
        <ele>243</ele>
        <time>2008-08-24T08:56:06Z</time>
      </trkpt>
      <trkpt lat="44.3809" lon="4.84117">
        <ele>247</ele>
        <time>2008-08-24T08:56:24Z</time>
      </trkpt>
      <trkpt lat="44.38138" lon="4.84055">
        <ele>247</ele>
        <time>2008-08-24T08:56:43Z</time>
      </trkpt>
      <trkpt lat="44.38148" lon="4.84042">
        <ele>249</ele>
        <time>2008-08-24T08:56:47Z</time>
      </trkpt>
      <trkpt lat="44.38187" lon="4.83984">
        <ele>252</ele>
        <time>2008-08-24T08:57:04Z</time>
      </trkpt>
      <trkpt lat="44.38206" lon="4.83961">
        <ele>253</ele>
        <time>2008-08-24T08:57:14Z</time>
      </trkpt>
      <trkpt lat="44.38232" lon="4.83937">
        <ele>257</ele>
        <time>2008-08-24T08:57:30Z</time>
      </trkpt>
      <trkpt lat="44.38241" lon="4.83888">
        <ele>258</ele>
        <time>2008-08-24T08:57:49Z</time>
      </trkpt>
      <trkpt lat="44.38243" lon="4.83858">
        <ele>261</ele>
        <time>2008-08-24T08:58:00Z</time>
      </trkpt>
      <trkpt lat="44.38238" lon="4.8383">
        <ele>264</ele>
        <time>2008-08-24T08:58:14Z</time>
      </trkpt>
      <trkpt lat="44.38208" lon="4.83804">
        <ele>266</ele>
        <time>2008-08-24T08:58:34Z</time>
      </trkpt>
      <trkpt lat="44.38196" lon="4.83793">
        <ele>270</ele>
        <time>2008-08-24T08:58:44Z</time>
      </trkpt>
      <trkpt lat="44.38178" lon="4.83772">
        <ele>273</ele>
        <time>2008-08-24T08:58:59Z</time>
      </trkpt>
      <trkpt lat="44.38174" lon="4.83765">
        <ele>275</ele>
        <time>2008-08-24T08:59:04Z</time>
      </trkpt>
      <trkpt lat="44.38168" lon="4.83748">
        <ele>278</ele>
        <time>2008-08-24T08:59:15Z</time>
      </trkpt>
      <trkpt lat="44.38172" lon="4.83735">
        <ele>277</ele>
        <time>2008-08-24T08:59:22Z</time>
      </trkpt>
      <trkpt lat="44.38153" lon="4.83735">
        <ele>277</ele>
        <time>2008-08-24T08:59:31Z</time>
      </trkpt>
      <trkpt lat="44.38114" lon="4.8372">
        <ele>279</ele>
        <time>2008-08-24T08:59:46Z</time>
      </trkpt>
      <trkpt lat="44.38056" lon="4.83682">
        <ele>279</ele>
        <time>2008-08-24T09:00:08Z</time>
      </trkpt>
      <trkpt lat="44.38026" lon="4.8368">
        <ele>277</ele>
        <time>2008-08-24T09:00:16Z</time>
      </trkpt>
      <trkpt lat="44.38022" lon="4.8368">
        <ele>276</ele>
        <time>2008-08-24T09:00:17Z</time>
      </trkpt>
      <trkpt lat="44.37985" lon="4.8369">
        <ele>276</ele>
        <time>2008-08-24T09:00:24Z</time>
      </trkpt>
      <trkpt lat="44.37968" lon="4.8369">
        <ele>277</ele>
        <time>2008-08-24T09:00:28Z</time>
      </trkpt>
      <trkpt lat="44.37947" lon="4.83692">
        <ele>277</ele>
        <time>2008-08-24T09:00:33Z</time>
      </trkpt>
      <trkpt lat="44.37936" lon="4.83712">
        <ele>277</ele>
        <time>2008-08-24T09:00:38Z</time>
      </trkpt>
      <trkpt lat="44.37929" lon="4.83729">
        <ele>277</ele>
        <time>2008-08-24T09:00:41Z</time>
      </trkpt>
      <trkpt lat="44.37927" lon="4.83759">
        <ele>277</ele>
        <time>2008-08-24T09:00:46Z</time>
      </trkpt>
      <trkpt lat="44.37914" lon="4.83804">
        <ele>277</ele>
        <time>2008-08-24T09:00:53Z</time>
      </trkpt>
      <trkpt lat="44.37899" lon="4.83862">
        <ele>274</ele>
        <time>2008-08-24T09:01:01Z</time>
      </trkpt>
      <trkpt lat="44.37891" lon="4.83918">
        <ele>272</ele>
        <time>2008-08-24T09:01:08Z</time>
      </trkpt>
      <trkpt lat="44.37882" lon="4.83937">
        <ele>272</ele>
        <time>2008-08-24T09:01:11Z</time>
      </trkpt>
      <trkpt lat="44.37869" lon="4.83982">
        <ele>268</ele>
        <time>2008-08-24T09:01:17Z</time>
      </trkpt>
      <trkpt lat="44.37863" lon="4.84021">
        <ele>265</ele>
        <time>2008-08-24T09:01:22Z</time>
      </trkpt>
      <trkpt lat="44.37863" lon="4.84029">
        <ele>265</ele>
        <time>2008-08-24T09:01:23Z</time>
      </trkpt>
      <trkpt lat="44.37859" lon="4.84068">
        <ele>262</ele>
        <time>2008-08-24T09:01:28Z</time>
      </trkpt>
      <trkpt lat="44.37852" lon="4.84096">
        <ele>259</ele>
        <time>2008-08-24T09:01:31Z</time>
      </trkpt>
      <trkpt lat="44.3785" lon="4.84102">
        <ele>258</ele>
        <time>2008-08-24T09:01:32Z</time>
      </trkpt>
      <trkpt lat="44.37822" lon="4.8421">
        <ele>254</ele>
        <time>2008-08-24T09:01:44Z</time>
      </trkpt>
      <trkpt lat="44.3782" lon="4.84218">
        <ele>254</ele>
        <time>2008-08-24T09:01:45Z</time>
      </trkpt>
      <trkpt lat="44.37811" lon="4.84255">
        <ele>252</ele>
        <time>2008-08-24T09:01:49Z</time>
      </trkpt>
      <trkpt lat="44.37792" lon="4.84332">
        <ele>249</ele>
        <time>2008-08-24T09:01:58Z</time>
      </trkpt>
      <trkpt lat="44.37779" lon="4.84375">
        <ele>247</ele>
        <time>2008-08-24T09:02:03Z</time>
      </trkpt>
      <trkpt lat="44.37753" lon="4.84463">
        <ele>245</ele>
        <time>2008-08-24T09:02:14Z</time>
      </trkpt>
      <trkpt lat="44.37713" lon="4.84501">
        <ele>243</ele>
        <time>2008-08-24T09:02:25Z</time>
      </trkpt>
      <trkpt lat="44.37689" lon="4.84523">
        <ele>242</ele>
        <time>2008-08-24T09:02:30Z</time>
      </trkpt>
      <trkpt lat="44.37666" lon="4.84544">
        <ele>241</ele>
        <time>2008-08-24T09:02:35Z</time>
      </trkpt>
      <trkpt lat="44.37648" lon="4.84572">
        <ele>240</ele>
        <time>2008-08-24T09:02:40Z</time>
      </trkpt>
      <trkpt lat="44.37633" lon="4.84592">
        <ele>240</ele>
        <time>2008-08-24T09:02:43Z</time>
      </trkpt>
      <trkpt lat="44.37599" lon="4.84617">
        <ele>236</ele>
        <time>2008-08-24T09:02:49Z</time>
      </trkpt>
      <trkpt lat="44.37575" lon="4.84628">
        <ele>233</ele>
        <time>2008-08-24T09:02:53Z</time>
      </trkpt>
      <trkpt lat="44.37558" lon="4.84634">
        <ele>231</ele>
        <time>2008-08-24T09:02:56Z</time>
      </trkpt>
      <trkpt lat="44.37543" lon="4.84641">
        <ele>229</ele>
        <time>2008-08-24T09:02:59Z</time>
      </trkpt>
      <trkpt lat="44.37526" lon="4.84647">
        <ele>227</ele>
        <time>2008-08-24T09:03:02Z</time>
      </trkpt>
      <trkpt lat="44.37442" lon="4.84673">
        <ele>224</ele>
        <time>2008-08-24T09:03:15Z</time>
      </trkpt>
      <trkpt lat="44.37342" lon="4.84697">
        <ele>221</ele>
        <time>2008-08-24T09:03:31Z</time>
      </trkpt>
      <trkpt lat="44.37318" lon="4.84703">
        <ele>217</ele>
        <time>2008-08-24T09:03:35Z</time>
      </trkpt>
      <trkpt lat="44.37311" lon="4.84705">
        <ele>217</ele>
        <time>2008-08-24T09:03:36Z</time>
      </trkpt>
      <trkpt lat="44.37288" lon="4.84712">
        <ele>215</ele>
        <time>2008-08-24T09:03:40Z</time>
      </trkpt>
      <trkpt lat="44.37264" lon="4.84718">
        <ele>212</ele>
        <time>2008-08-24T09:03:44Z</time>
      </trkpt>
      <trkpt lat="44.37228" lon="4.84729">
        <ele>209</ele>
        <time>2008-08-24T09:03:50Z</time>
      </trkpt>
      <trkpt lat="44.372" lon="4.84744">
        <ele>205</ele>
        <time>2008-08-24T09:03:55Z</time>
      </trkpt>
      <trkpt lat="44.3717" lon="4.84761">
        <ele>202</ele>
        <time>2008-08-24T09:04:00Z</time>
      </trkpt>
      <trkpt lat="44.37127" lon="4.84787">
        <ele>200</ele>
        <time>2008-08-24T09:04:07Z</time>
      </trkpt>
      <trkpt lat="44.37114" lon="4.84802">
        <ele>199</ele>
        <time>2008-08-24T09:04:10Z</time>
      </trkpt>
      <trkpt lat="44.37103" lon="4.84808">
        <ele>198</ele>
        <time>2008-08-24T09:04:12Z</time>
      </trkpt>
      <trkpt lat="44.37073" lon="4.84819">
        <ele>193</ele>
        <time>2008-08-24T09:04:18Z</time>
      </trkpt>
      <trkpt lat="44.3706" lon="4.84825">
        <ele>190</ele>
        <time>2008-08-24T09:04:21Z</time>
      </trkpt>
      <trkpt lat="44.37056" lon="4.84828">
        <ele>190</ele>
        <time>2008-08-24T09:04:22Z</time>
      </trkpt>
      <trkpt lat="44.37039" lon="4.84834">
        <ele>188</ele>
        <time>2008-08-24T09:04:25Z</time>
      </trkpt>
      <trkpt lat="44.37002" lon="4.84851">
        <ele>185</ele>
        <time>2008-08-24T09:04:32Z</time>
      </trkpt>
      <trkpt lat="44.36964" lon="4.84864">
        <ele>181</ele>
        <time>2008-08-24T09:04:38Z</time>
      </trkpt>
      <trkpt lat="44.36947" lon="4.84868">
        <ele>179</ele>
        <time>2008-08-24T09:04:40Z</time>
      </trkpt>
      <trkpt lat="44.36904" lon="4.84896">
        <ele>174</ele>
        <time>2008-08-24T09:04:44Z</time>
      </trkpt>
      <trkpt lat="44.3685" lon="4.84924">
        <ele>171</ele>
        <time>2008-08-24T09:04:49Z</time>
      </trkpt>
      <trkpt lat="44.36788" lon="4.84956">
        <ele>166</ele>
        <time>2008-08-24T09:04:55Z</time>
      </trkpt>
      <trkpt lat="44.36777" lon="4.84961">
        <ele>166</ele>
        <time>2008-08-24T09:04:56Z</time>
      </trkpt>
      <trkpt lat="44.36747" lon="4.84973">
        <ele>165</ele>
        <time>2008-08-24T09:04:59Z</time>
      </trkpt>
      <trkpt lat="44.36728" lon="4.8498">
        <ele>163</ele>
        <time>2008-08-24T09:05:01Z</time>
      </trkpt>
      <trkpt lat="44.36709" lon="4.84986">
        <ele>162</ele>
        <time>2008-08-24T09:05:03Z</time>
      </trkpt>
      <trkpt lat="44.3667" lon="4.85014">
        <ele>161</ele>
        <time>2008-08-24T09:05:08Z</time>
      </trkpt>
      <trkpt lat="44.36659" lon="4.85023">
        <ele>160</ele>
        <time>2008-08-24T09:05:10Z</time>
      </trkpt>
      <trkpt lat="44.36655" lon="4.85021">
        <ele>159</ele>
        <time>2008-08-24T09:05:13Z</time>
      </trkpt>
      <trkpt lat="44.36651" lon="4.85016">
        <ele>159</ele>
        <time>2008-08-24T09:05:18Z</time>
      </trkpt>
      <trkpt lat="44.36655" lon="4.85014">
        <ele>159</ele>
        <time>2008-08-24T09:05:21Z</time>
      </trkpt>
      <trkpt lat="44.36668" lon="4.84963">
        <ele>162</ele>
        <time>2008-08-24T09:05:38Z</time>
      </trkpt>
      <trkpt lat="44.36683" lon="4.84892">
        <ele>165</ele>
        <time>2008-08-24T09:05:55Z</time>
      </trkpt>
      <trkpt lat="44.36687" lon="4.84862">
        <ele>167</ele>
        <time>2008-08-24T09:06:03Z</time>
      </trkpt>
      <trkpt lat="44.36678" lon="4.84798">
        <ele>171</ele>
        <time>2008-08-24T09:06:22Z</time>
      </trkpt>
      <trkpt lat="44.36681" lon="4.84793">
        <ele>171</ele>
        <time>2008-08-24T09:06:24Z</time>
      </trkpt>
      <trkpt lat="44.36687" lon="4.84759">
        <ele>175</ele>
        <time>2008-08-24T09:06:39Z</time>
      </trkpt>
      <trkpt lat="44.36698" lon="4.84729">
        <ele>178</ele>
        <time>2008-08-24T09:06:53Z</time>
      </trkpt>
      <trkpt lat="44.36704" lon="4.84697">
        <ele>181</ele>
        <time>2008-08-24T09:07:11Z</time>
      </trkpt>
      <trkpt lat="44.36702" lon="4.84673">
        <ele>184</ele>
        <time>2008-08-24T09:07:56Z</time>
      </trkpt>
      <trkpt lat="44.36702" lon="4.84669">
        <ele>184</ele>
        <time>2008-08-24T09:07:58Z</time>
      </trkpt>
      <trkpt lat="44.36681" lon="4.84609">
        <ele>188</ele>
        <time>2008-08-24T09:08:19Z</time>
      </trkpt>
      <trkpt lat="44.3667" lon="4.84549">
        <ele>190</ele>
        <time>2008-08-24T09:08:42Z</time>
      </trkpt>
      <trkpt lat="44.36661" lon="4.84504">
        <ele>194</ele>
        <time>2008-08-24T09:08:56Z</time>
      </trkpt>
      <trkpt lat="44.36657" lon="4.84433">
        <ele>195</ele>
        <time>2008-08-24T09:09:20Z</time>
      </trkpt>
      <trkpt lat="44.36683" lon="4.84403">
        <ele>199</ele>
        <time>2008-08-24T09:09:35Z</time>
      </trkpt>
      <trkpt lat="44.36713" lon="4.84377">
        <ele>202</ele>
        <time>2008-08-24T09:09:53Z</time>
      </trkpt>
      <trkpt lat="44.36762" lon="4.84334">
        <ele>205</ele>
        <time>2008-08-24T09:10:19Z</time>
      </trkpt>
      <trkpt lat="44.36805" lon="4.84291">
        <ele>207</ele>
        <time>2008-08-24T09:24:15Z</time>
      </trkpt>
      <trkpt lat="44.36766" lon="4.84268">
        <ele>206</ele>
        <time>2008-08-24T09:24:29Z</time>
      </trkpt>
      <trkpt lat="44.36745" lon="4.8425">
        <ele>207</ele>
        <time>2008-08-24T09:24:33Z</time>
      </trkpt>
      <trkpt lat="44.36625" lon="4.84147">
        <ele>204</ele>
        <time>2008-08-24T09:24:54Z</time>
      </trkpt>
      <trkpt lat="44.36548" lon="4.84083">
        <ele>204</ele>
        <time>2008-08-24T09:25:07Z</time>
      </trkpt>
      <trkpt lat="44.36507" lon="4.84089">
        <ele>202</ele>
        <time>2008-08-24T09:25:13Z</time>
      </trkpt>
      <trkpt lat="44.36494" lon="4.841">
        <ele>202</ele>
        <time>2008-08-24T09:25:15Z</time>
      </trkpt>
      <trkpt lat="44.36466" lon="4.84132">
        <ele>200</ele>
        <time>2008-08-24T09:25:20Z</time>
      </trkpt>
      <trkpt lat="44.36453" lon="4.84134">
        <ele>198</ele>
        <time>2008-08-24T09:25:22Z</time>
      </trkpt>
      <trkpt lat="44.36421" lon="4.8413">
        <ele>195</ele>
        <time>2008-08-24T09:25:27Z</time>
      </trkpt>
      <trkpt lat="44.36395" lon="4.84122">
        <ele>193</ele>
        <time>2008-08-24T09:25:31Z</time>
      </trkpt>
      <trkpt lat="44.3638" lon="4.84119">
        <ele>191</ele>
        <time>2008-08-24T09:25:33Z</time>
      </trkpt>
      <trkpt lat="44.36365" lon="4.84126">
        <ele>191</ele>
        <time>2008-08-24T09:25:35Z</time>
      </trkpt>
      <trkpt lat="44.36348" lon="4.84134">
        <ele>189</ele>
        <time>2008-08-24T09:25:38Z</time>
      </trkpt>
      <trkpt lat="44.36333" lon="4.84137">
        <ele>187</ele>
        <time>2008-08-24T09:25:40Z</time>
      </trkpt>
      <trkpt lat="44.36312" lon="4.84141">
        <ele>184</ele>
        <time>2008-08-24T09:25:43Z</time>
      </trkpt>
      <trkpt lat="44.36303" lon="4.84143">
        <ele>184</ele>
        <time>2008-08-24T09:25:44Z</time>
      </trkpt>
      <trkpt lat="44.36299" lon="4.84141">
        <ele>184</ele>
        <time>2008-08-24T09:25:46Z</time>
      </trkpt>
      <trkpt lat="44.36301" lon="4.8413">
        <ele>183</ele>
        <time>2008-08-24T09:25:50Z</time>
      </trkpt>
      <trkpt lat="44.3635" lon="4.84074">
        <ele>182</ele>
        <time>2008-08-24T09:26:03Z</time>
      </trkpt>
      <trkpt lat="44.36485" lon="4.83931">
        <ele>181</ele>
        <time>2008-08-24T09:26:35Z</time>
      </trkpt>
      <trkpt lat="44.36483" lon="4.83868">
        <ele>182</ele>
        <time>2008-08-24T09:26:43Z</time>
      </trkpt>
      <trkpt lat="44.36513" lon="4.83841">
        <ele>188</ele>
        <time>2008-08-24T09:26:57Z</time>
      </trkpt>
      <trkpt lat="44.36533" lon="4.83843">
        <ele>190</ele>
        <time>2008-08-24T09:27:09Z</time>
      </trkpt>
      <trkpt lat="44.36533" lon="4.83843">
        <ele>191</ele>
        <time>2008-08-24T09:27:10Z</time>
      </trkpt>
      <trkpt lat="44.36563" lon="4.83836">
        <ele>194</ele>
        <time>2008-08-24T09:27:27Z</time>
      </trkpt>
      <trkpt lat="44.3658" lon="4.83825">
        <ele>198</ele>
        <time>2008-08-24T09:27:38Z</time>
      </trkpt>
      <trkpt lat="44.36606" lon="4.83806">
        <ele>199</ele>
        <time>2008-08-24T09:27:56Z</time>
      </trkpt>
      <trkpt lat="44.36633" lon="4.83787">
        <ele>202</ele>
        <time>2008-08-24T09:28:16Z</time>
      </trkpt>
      <trkpt lat="44.36657" lon="4.83772">
        <ele>206</ele>
        <time>2008-08-24T09:28:31Z</time>
      </trkpt>
      <trkpt lat="44.36678" lon="4.83757">
        <ele>210</ele>
        <time>2008-08-24T09:28:49Z</time>
      </trkpt>
      <trkpt lat="44.367" lon="4.83748">
        <ele>213</ele>
        <time>2008-08-24T09:29:03Z</time>
      </trkpt>
      <trkpt lat="44.36728" lon="4.83716">
        <ele>213</ele>
        <time>2008-08-24T09:29:21Z</time>
      </trkpt>
      <trkpt lat="44.36794" lon="4.8362">
        <ele>209</ele>
        <time>2008-08-24T09:29:38Z</time>
      </trkpt>
      <trkpt lat="44.36837" lon="4.83532">
        <ele>211</ele>
        <time>2008-08-24T09:29:53Z</time>
      </trkpt>
      <trkpt lat="44.36854" lon="4.83514">
        <ele>214</ele>
        <time>2008-08-24T09:30:01Z</time>
      </trkpt>
      <trkpt lat="44.36876" lon="4.83484">
        <ele>217</ele>
        <time>2008-08-24T09:30:15Z</time>
      </trkpt>
      <trkpt lat="44.36876" lon="4.83482">
        <ele>218</ele>
        <time>2008-08-24T09:30:16Z</time>
      </trkpt>
      <trkpt lat="44.36893" lon="4.83439">
        <ele>221</ele>
        <time>2008-08-24T09:30:31Z</time>
      </trkpt>
      <trkpt lat="44.36904" lon="4.83409">
        <ele>221</ele>
        <time>2008-08-24T09:30:40Z</time>
      </trkpt>
      <trkpt lat="44.36906" lon="4.83368">
        <ele>223</ele>
        <time>2008-08-24T09:30:52Z</time>
      </trkpt>
      <trkpt lat="44.36912" lon="4.83343">
        <ele>227</ele>
        <time>2008-08-24T09:31:02Z</time>
      </trkpt>
      <trkpt lat="44.36912" lon="4.83338">
        <ele>227</ele>
        <time>2008-08-24T09:31:04Z</time>
      </trkpt>
      <trkpt lat="44.36917" lon="4.83332">
        <ele>229</ele>
        <time>2008-08-24T09:31:07Z</time>
      </trkpt>
      <trkpt lat="44.36932" lon="4.83315">
        <ele>232</ele>
        <time>2008-08-24T09:31:21Z</time>
      </trkpt>
      <trkpt lat="44.36936" lon="4.83311">
        <ele>234</ele>
        <time>2008-08-24T09:31:26Z</time>
      </trkpt>
      <trkpt lat="44.36953" lon="4.83308">
        <ele>237</ele>
        <time>2008-08-24T09:31:41Z</time>
      </trkpt>
      <trkpt lat="44.3696" lon="4.83306">
        <ele>238</ele>
        <time>2008-08-24T09:31:49Z</time>
      </trkpt>
      <trkpt lat="44.37037" lon="4.83368">
        <ele>240</ele>
        <time>2008-08-24T09:32:15Z</time>
      </trkpt>
      <trkpt lat="44.37026" lon="4.83366">
        <ele>240</ele>
        <time>2008-08-24T09:32:32Z</time>
      </trkpt>
      <trkpt lat="44.37033" lon="4.83364">
        <ele>240</ele>
        <time>2008-08-24T09:33:13Z</time>
      </trkpt>
      <trkpt lat="44.3703" lon="4.83313">
        <ele>241</ele>
        <time>2008-08-24T09:33:25Z</time>
      </trkpt>
      <trkpt lat="44.37017" lon="4.83259">
        <ele>244</ele>
        <time>2008-08-24T09:33:40Z</time>
      </trkpt>
      <trkpt lat="44.37017" lon="4.83255">
        <ele>244</ele>
        <time>2008-08-24T09:33:41Z</time>
      </trkpt>
      <trkpt lat="44.37015" lon="4.8322">
        <ele>247</ele>
        <time>2008-08-24T09:33:53Z</time>
      </trkpt>
      <trkpt lat="44.37013" lon="4.83173">
        <ele>251</ele>
        <time>2008-08-24T09:34:16Z</time>
      </trkpt>
      <trkpt lat="44.36992" lon="4.83139">
        <ele>251</ele>
        <time>2008-08-24T09:34:30Z</time>
      </trkpt>
      <trkpt lat="44.36953" lon="4.83128">
        <ele>251</ele>
        <time>2008-08-24T09:34:41Z</time>
      </trkpt>
      <trkpt lat="44.3694" lon="4.83122">
        <ele>250</ele>
        <time>2008-08-24T09:34:44Z</time>
      </trkpt>
      <trkpt lat="44.36917" lon="4.83124">
        <ele>250</ele>
        <time>2008-08-24T09:34:49Z</time>
      </trkpt>
      <trkpt lat="44.36906" lon="4.83124">
        <ele>249</ele>
        <time>2008-08-24T09:34:51Z</time>
      </trkpt>
      <trkpt lat="44.36887" lon="4.83117">
        <ele>248</ele>
        <time>2008-08-24T09:34:54Z</time>
      </trkpt>
      <trkpt lat="44.36852" lon="4.83111">
        <ele>242</ele>
        <time>2008-08-24T09:34:59Z</time>
      </trkpt>
      <trkpt lat="44.36846" lon="4.83109">
        <ele>242</ele>
        <time>2008-08-24T09:35:00Z</time>
      </trkpt>
      <trkpt lat="44.3682" lon="4.83081">
        <ele>238</ele>
        <time>2008-08-24T09:35:07Z</time>
      </trkpt>
      <trkpt lat="44.36814" lon="4.83079">
        <ele>238</ele>
        <time>2008-08-24T09:35:08Z</time>
      </trkpt>
      <trkpt lat="44.36734" lon="4.83055">
        <ele>237</ele>
        <time>2008-08-24T09:35:22Z</time>
      </trkpt>
      <trkpt lat="44.3667" lon="4.83025">
        <ele>235</ele>
        <time>2008-08-24T09:35:32Z</time>
      </trkpt>
      <trkpt lat="44.36582" lon="4.83012">
        <ele>232</ele>
        <time>2008-08-24T09:35:45Z</time>
      </trkpt>
      <trkpt lat="44.36541" lon="4.83012">
        <ele>231</ele>
        <time>2008-08-24T09:35:54Z</time>
      </trkpt>
      <trkpt lat="44.36548" lon="4.83014">
        <ele>231</ele>
        <time>2008-08-24T09:36:02Z</time>
      </trkpt>
      <trkpt lat="44.36548" lon="4.83036">
        <ele>232</ele>
        <time>2008-08-24T09:36:09Z</time>
      </trkpt>
      <trkpt lat="44.36578" lon="4.83066">
        <ele>234</ele>
        <time>2008-08-24T09:36:21Z</time>
      </trkpt>
      <trkpt lat="44.36584" lon="4.83077">
        <ele>235</ele>
        <time>2008-08-24T09:36:26Z</time>
      </trkpt>
      <trkpt lat="44.36586" lon="4.83094">
        <ele>239</ele>
        <time>2008-08-24T09:36:33Z</time>
      </trkpt>
      <trkpt lat="44.36584" lon="4.83122">
        <ele>242</ele>
        <time>2008-08-24T09:36:49Z</time>
      </trkpt>
      <trkpt lat="44.36584" lon="4.83128">
        <ele>243</ele>
        <time>2008-08-24T09:36:53Z</time>
      </trkpt>
      <trkpt lat="44.36578" lon="4.83132">
        <ele>244</ele>
        <time>2008-08-24T09:36:57Z</time>
      </trkpt>
      <trkpt lat="44.3653" lon="4.8313">
        <ele>244</ele>
        <time>2008-08-24T09:37:16Z</time>
      </trkpt>
      <trkpt lat="44.3652" lon="4.83128">
        <ele>243</ele>
        <time>2008-08-24T09:37:19Z</time>
      </trkpt>
      <trkpt lat="44.36494" lon="4.83147">
        <ele>238</ele>
        <time>2008-08-24T09:37:25Z</time>
      </trkpt>
      <trkpt lat="44.3649" lon="4.8315">
        <ele>237</ele>
        <time>2008-08-24T09:37:26Z</time>
      </trkpt>
      <trkpt lat="44.36479" lon="4.83167">
        <ele>235</ele>
        <time>2008-08-24T09:37:29Z</time>
      </trkpt>
      <trkpt lat="44.36475" lon="4.8318">
        <ele>234</ele>
        <time>2008-08-24T09:37:31Z</time>
      </trkpt>
      <trkpt lat="44.36466" lon="4.83188">
        <ele>233</ele>
        <time>2008-08-24T09:37:33Z</time>
      </trkpt>
      <trkpt lat="44.3646" lon="4.83188">
        <ele>232</ele>
        <time>2008-08-24T09:37:34Z</time>
      </trkpt>
      <trkpt lat="44.36427" lon="4.83186">
        <ele>229</ele>
        <time>2008-08-24T09:37:40Z</time>
      </trkpt>
      <trkpt lat="44.36419" lon="4.8318">
        <ele>230</ele>
        <time>2008-08-24T09:37:42Z</time>
      </trkpt>
      <trkpt lat="44.36412" lon="4.83173">
        <ele>228</ele>
        <time>2008-08-24T09:37:44Z</time>
      </trkpt>
      <trkpt lat="44.36391" lon="4.83165">
        <ele>227</ele>
        <time>2008-08-24T09:37:49Z</time>
      </trkpt>
      <trkpt lat="44.36378" lon="4.83156">
        <ele>227</ele>
        <time>2008-08-24T09:37:52Z</time>
      </trkpt>
      <trkpt lat="44.36342" lon="4.83126">
        <ele>230</ele>
        <time>2008-08-24T09:38:03Z</time>
      </trkpt>
      <trkpt lat="44.36348" lon="4.83107">
        <ele>231</ele>
        <time>2008-08-24T09:38:09Z</time>
      </trkpt>
      <trkpt lat="44.36352" lon="4.83098">
        <ele>231</ele>
        <time>2008-08-24T09:38:12Z</time>
      </trkpt>
      <trkpt lat="44.3635" lon="4.83087">
        <ele>230</ele>
        <time>2008-08-24T09:38:17Z</time>
      </trkpt>
      <trkpt lat="44.36327" lon="4.83062">
        <ele>227</ele>
        <time>2008-08-24T09:38:26Z</time>
      </trkpt>
      <trkpt lat="44.36324" lon="4.83059">
        <ele>226</ele>
        <time>2008-08-24T09:38:27Z</time>
      </trkpt>
      <trkpt lat="44.36312" lon="4.83044">
        <ele>225</ele>
        <time>2008-08-24T09:38:30Z</time>
      </trkpt>
      <trkpt lat="44.36305" lon="4.83038">
        <ele>225</ele>
        <time>2008-08-24T09:38:31Z</time>
      </trkpt>
      <trkpt lat="44.36284" lon="4.83047">
        <ele>225</ele>
        <time>2008-08-24T09:38:35Z</time>
      </trkpt>
      <trkpt lat="44.36273" lon="4.83047">
        <ele>227</ele>
        <time>2008-08-24T09:38:38Z</time>
      </trkpt>
      <trkpt lat="44.36269" lon="4.83044">
        <ele>226</ele>
        <time>2008-08-24T09:38:39Z</time>
      </trkpt>
      <trkpt lat="44.36269" lon="4.83034">
        <ele>227</ele>
        <time>2008-08-24T09:38:41Z</time>
      </trkpt>
      <trkpt lat="44.36281" lon="4.83006">
        <ele>222</ele>
        <time>2008-08-24T09:38:44Z</time>
      </trkpt>
      <trkpt lat="44.3629" lon="4.82991">
        <ele>223</ele>
        <time>2008-08-24T09:38:46Z</time>
      </trkpt>
      <trkpt lat="44.36277" lon="4.82978">
        <ele>221</ele>
        <time>2008-08-24T09:38:50Z</time>
      </trkpt>
      <trkpt lat="44.36264" lon="4.82978">
        <ele>221</ele>
        <time>2008-08-24T09:38:52Z</time>
      </trkpt>
      <trkpt lat="44.36249" lon="4.82991">
        <ele>224</ele>
        <time>2008-08-24T09:38:56Z</time>
      </trkpt>
      <trkpt lat="44.36247" lon="4.82995">
        <ele>224</ele>
        <time>2008-08-24T09:38:57Z</time>
      </trkpt>
      <trkpt lat="44.36209" lon="4.83014">
        <ele>223</ele>
        <time>2008-08-24T09:39:08Z</time>
      </trkpt>
      <trkpt lat="44.36213" lon="4.83019">
        <ele>223</ele>
        <time>2008-08-24T09:39:14Z</time>
      </trkpt>
      <trkpt lat="44.36219" lon="4.83029">
        <ele>224</ele>
        <time>2008-08-24T09:39:25Z</time>
      </trkpt>
      <trkpt lat="44.36213" lon="4.83019">
        <ele>222</ele>
        <time>2008-08-24T09:39:29Z</time>
      </trkpt>
      <trkpt lat="44.36204" lon="4.83008">
        <ele>222</ele>
        <time>2008-08-24T09:39:31Z</time>
      </trkpt>
      <trkpt lat="44.36185" lon="4.82989">
        <ele>219</ele>
        <time>2008-08-24T09:39:35Z</time>
      </trkpt>
      <trkpt lat="44.36172" lon="4.82965">
        <ele>216</ele>
        <time>2008-08-24T09:39:39Z</time>
      </trkpt>
      <trkpt lat="44.36168" lon="4.82959">
        <ele>216</ele>
        <time>2008-08-24T09:39:40Z</time>
      </trkpt>
      <trkpt lat="44.36155" lon="4.82935">
        <ele>213</ele>
        <time>2008-08-24T09:39:44Z</time>
      </trkpt>
      <trkpt lat="44.36151" lon="4.82924">
        <ele>212</ele>
        <time>2008-08-24T09:39:46Z</time>
      </trkpt>
      <trkpt lat="44.3614" lon="4.82909">
        <ele>207</ele>
        <time>2008-08-24T09:39:49Z</time>
      </trkpt>
      <trkpt lat="44.36138" lon="4.82905">
        <ele>207</ele>
        <time>2008-08-24T09:39:50Z</time>
      </trkpt>
      <trkpt lat="44.36129" lon="4.82901">
        <ele>209</ele>
        <time>2008-08-24T09:39:52Z</time>
      </trkpt>
      <trkpt lat="44.36112" lon="4.82899">
        <ele>208</ele>
        <time>2008-08-24T09:39:55Z</time>
      </trkpt>
      <trkpt lat="44.36091" lon="4.82911">
        <ele>209</ele>
        <time>2008-08-24T09:40:00Z</time>
      </trkpt>
      <trkpt lat="44.36084" lon="4.82911">
        <ele>208</ele>
        <time>2008-08-24T09:40:02Z</time>
      </trkpt>
      <trkpt lat="44.36093" lon="4.82892">
        <ele>206</ele>
        <time>2008-08-24T09:40:06Z</time>
      </trkpt>
      <trkpt lat="44.36106" lon="4.82873">
        <ele>202</ele>
        <time>2008-08-24T09:40:10Z</time>
      </trkpt>
      <trkpt lat="44.3611" lon="4.82868">
        <ele>202</ele>
        <time>2008-08-24T09:40:11Z</time>
      </trkpt>
      <trkpt lat="44.36121" lon="4.82849">
        <ele>200</ele>
        <time>2008-08-24T09:40:14Z</time>
      </trkpt>
      <trkpt lat="44.36146" lon="4.82834">
        <ele>201</ele>
        <time>2008-08-24T09:40:19Z</time>
      </trkpt>
      <trkpt lat="44.36155" lon="4.8283">
        <ele>202</ele>
        <time>2008-08-24T09:40:21Z</time>
      </trkpt>
      <trkpt lat="44.36174" lon="4.8283">
        <ele>203</ele>
        <time>2008-08-24T09:40:25Z</time>
      </trkpt>
      <trkpt lat="44.36202" lon="4.82841">
        <ele>206</ele>
        <time>2008-08-24T09:40:34Z</time>
      </trkpt>
      <trkpt lat="44.3626" lon="4.82849">
        <ele>210</ele>
        <time>2008-08-24T09:40:55Z</time>
      </trkpt>
      <trkpt lat="44.36281" lon="4.82864">
        <ele>213</ele>
        <time>2008-08-24T09:41:08Z</time>
      </trkpt>
      <trkpt lat="44.36303" lon="4.82884">
        <ele>216</ele>
        <time>2008-08-24T09:41:24Z</time>
      </trkpt>
      <trkpt lat="44.3632" lon="4.82907">
        <ele>220</ele>
        <time>2008-08-24T09:41:39Z</time>
      </trkpt>
      <trkpt lat="44.36342" lon="4.82907">
        <ele>222</ele>
        <time>2008-08-24T09:41:59Z</time>
      </trkpt>
      <trkpt lat="44.36344" lon="4.82875">
        <ele>226</ele>
        <time>2008-08-24T09:42:14Z</time>
      </trkpt>
      <trkpt lat="44.36346" lon="4.82873">
        <ele>226</ele>
        <time>2008-08-24T09:42:15Z</time>
      </trkpt>
      <trkpt lat="44.36354" lon="4.8286">
        <ele>228</ele>
        <time>2008-08-24T09:42:26Z</time>
      </trkpt>
      <trkpt lat="44.36363" lon="4.82856">
        <ele>230</ele>
        <time>2008-08-24T09:42:32Z</time>
      </trkpt>
      <trkpt lat="44.36402" lon="4.82871">
        <ele>227</ele>
        <time>2008-08-24T09:42:59Z</time>
      </trkpt>
      <trkpt lat="44.36415" lon="4.82871">
        <ele>225</ele>
        <time>2008-08-24T09:43:03Z</time>
      </trkpt>
      <trkpt lat="44.36438" lon="4.82875">
        <ele>228</ele>
        <time>2008-08-24T09:43:14Z</time>
      </trkpt>
      <trkpt lat="44.36451" lon="4.82884">
        <ele>231</ele>
        <time>2008-08-24T09:43:39Z</time>
      </trkpt>
      <trkpt lat="44.3647" lon="4.82905">
        <ele>233</ele>
        <time>2008-08-24T09:45:12Z</time>
      </trkpt>
      <trkpt lat="44.36494" lon="4.8292">
        <ele>233</ele>
        <time>2008-08-24T09:45:21Z</time>
      </trkpt>
      <trkpt lat="44.36505" lon="4.82888">
        <ele>235</ele>
        <time>2008-08-24T09:45:34Z</time>
      </trkpt>
      <trkpt lat="44.36509" lon="4.82866">
        <ele>239</ele>
        <time>2008-08-24T09:45:44Z</time>
      </trkpt>
      <trkpt lat="44.36515" lon="4.82832">
        <ele>242</ele>
        <time>2008-08-24T09:46:02Z</time>
      </trkpt>
      <trkpt lat="44.36522" lon="4.82808">
        <ele>245</ele>
        <time>2008-08-24T09:46:15Z</time>
      </trkpt>
      <trkpt lat="44.36535" lon="4.82789">
        <ele>249</ele>
        <time>2008-08-24T09:46:29Z</time>
      </trkpt>
      <trkpt lat="44.36556" lon="4.82774">
        <ele>252</ele>
        <time>2008-08-24T09:46:45Z</time>
      </trkpt>
      <trkpt lat="44.36578" lon="4.82755">
        <ele>255</ele>
        <time>2008-08-24T09:47:03Z</time>
      </trkpt>
      <trkpt lat="44.36599" lon="4.82729">
        <ele>259</ele>
        <time>2008-08-24T09:47:25Z</time>
      </trkpt>
      <trkpt lat="44.36621" lon="4.82705">
        <ele>262</ele>
        <time>2008-08-24T09:47:43Z</time>
      </trkpt>
      <trkpt lat="44.36621" lon="4.82705">
        <ele>262</ele>
        <time>2008-08-24T09:47:44Z</time>
      </trkpt>
      <trkpt lat="44.36625" lon="4.82697">
        <ele>264</ele>
        <time>2008-08-24T09:47:49Z</time>
      </trkpt>
      <trkpt lat="44.36625" lon="4.82686">
        <ele>265</ele>
        <time>2008-08-24T09:47:54Z</time>
      </trkpt>
      <trkpt lat="44.36636" lon="4.8265">
        <ele>268</ele>
        <time>2008-08-24T09:48:15Z</time>
      </trkpt>
      <trkpt lat="44.36648" lon="4.82643">
        <ele>272</ele>
        <time>2008-08-24T09:48:26Z</time>
      </trkpt>
      <trkpt lat="44.36663" lon="4.82635">
        <ele>271</ele>
        <time>2008-08-24T09:48:46Z</time>
      </trkpt>
      <trkpt lat="44.36663" lon="4.82637">
        <ele>273</ele>
        <time>2008-08-24T09:50:17Z</time>
      </trkpt>
      <trkpt lat="44.36691" lon="4.82617">
        <ele>274</ele>
        <time>2008-08-24T09:50:35Z</time>
      </trkpt>
      <trkpt lat="44.367" lon="4.82615">
        <ele>274</ele>
        <time>2008-08-24T09:50:40Z</time>
      </trkpt>
      <trkpt lat="44.36739" lon="4.82596">
        <ele>274</ele>
        <time>2008-08-24T09:50:57Z</time>
      </trkpt>
      <trkpt lat="44.36756" lon="4.82594">
        <ele>274</ele>
        <time>2008-08-24T09:51:06Z</time>
      </trkpt>
      <trkpt lat="44.36762" lon="4.82564">
        <ele>275</ele>
        <time>2008-08-24T09:51:15Z</time>
      </trkpt>
      <trkpt lat="44.3676" lon="4.82538">
        <ele>276</ele>
        <time>2008-08-24T09:51:22Z</time>
      </trkpt>
      <trkpt lat="44.36764" lon="4.82527">
        <ele>277</ele>
        <time>2008-08-24T09:51:26Z</time>
      </trkpt>
      <trkpt lat="44.36762" lon="4.82517">
        <ele>277</ele>
        <time>2008-08-24T09:51:30Z</time>
      </trkpt>
      <trkpt lat="44.36766" lon="4.82465">
        <ele>277</ele>
        <time>2008-08-24T09:51:43Z</time>
      </trkpt>
      <trkpt lat="44.36775" lon="4.82399">
        <ele>280</ele>
        <time>2008-08-24T09:51:58Z</time>
      </trkpt>
      <trkpt lat="44.3679" lon="4.82366">
        <ele>284</ele>
        <time>2008-08-24T09:52:12Z</time>
      </trkpt>
      <trkpt lat="44.3682" lon="4.82347">
        <ele>285</ele>
        <time>2008-08-24T09:52:30Z</time>
      </trkpt>
      <trkpt lat="44.36824" lon="4.82349">
        <ele>287</ele>
        <time>2008-08-24T09:52:33Z</time>
      </trkpt>
      <trkpt lat="44.36863" lon="4.82373">
        <ele>287</ele>
        <time>2008-08-24T09:52:51Z</time>
      </trkpt>
      <trkpt lat="44.36891" lon="4.82403">
        <ele>290</ele>
        <time>2008-08-24T09:53:05Z</time>
      </trkpt>
      <trkpt lat="44.3693" lon="4.8245">
        <ele>292</ele>
        <time>2008-08-24T09:53:27Z</time>
      </trkpt>
      <trkpt lat="44.36942" lon="4.82476">
        <ele>292</ele>
        <time>2008-08-24T09:53:35Z</time>
      </trkpt>
      <trkpt lat="44.36957" lon="4.82499">
        <ele>291</ele>
        <time>2008-08-24T09:53:41Z</time>
      </trkpt>
      <trkpt lat="44.3696" lon="4.82502">
        <ele>291</ele>
        <time>2008-08-24T09:53:42Z</time>
      </trkpt>
      <trkpt lat="44.36987" lon="4.82557">
        <ele>289</ele>
        <time>2008-08-24T09:53:54Z</time>
      </trkpt>
      <trkpt lat="44.36996" lon="4.82564">
        <ele>289</ele>
        <time>2008-08-24T09:53:56Z</time>
      </trkpt>
      <trkpt lat="44.37009" lon="4.82564">
        <ele>290</ele>
        <time>2008-08-24T09:54:00Z</time>
      </trkpt>
      <trkpt lat="44.37069" lon="4.82534">
        <ele>292</ele>
        <time>2008-08-24T09:54:20Z</time>
      </trkpt>
      <trkpt lat="44.3711" lon="4.82566">
        <ele>294</ele>
        <time>2008-08-24T09:54:37Z</time>
      </trkpt>
      <trkpt lat="44.37161" lon="4.82626">
        <ele>296</ele>
        <time>2008-08-24T09:54:54Z</time>
      </trkpt>
      <trkpt lat="44.37185" lon="4.82635">
        <ele>297</ele>
        <time>2008-08-24T09:55:01Z</time>
      </trkpt>
      <trkpt lat="44.37236" lon="4.8263">
        <ele>299</ele>
        <time>2008-08-24T09:55:16Z</time>
      </trkpt>
      <trkpt lat="44.37241" lon="4.82626">
        <ele>299</ele>
        <time>2008-08-24T09:55:18Z</time>
      </trkpt>
      <trkpt lat="44.37247" lon="4.82613">
        <ele>300</ele>
        <time>2008-08-24T09:55:23Z</time>
      </trkpt>
      <trkpt lat="44.37286" lon="4.82575">
        <ele>301</ele>
        <time>2008-08-24T09:55:40Z</time>
      </trkpt>
      <trkpt lat="44.37309" lon="4.82555">
        <ele>301</ele>
        <time>2008-08-24T09:55:48Z</time>
      </trkpt>
      <trkpt lat="44.3735" lon="4.82579">
        <ele>301</ele>
        <time>2008-08-24T09:56:02Z</time>
      </trkpt>
      <trkpt lat="44.37365" lon="4.82592">
        <ele>300</ele>
        <time>2008-08-24T09:56:07Z</time>
      </trkpt>
      <trkpt lat="44.37393" lon="4.82579">
        <ele>299</ele>
        <time>2008-08-24T09:56:14Z</time>
      </trkpt>
      <trkpt lat="44.37464" lon="4.82564">
        <ele>300</ele>
        <time>2008-08-24T09:56:32Z</time>
      </trkpt>
      <trkpt lat="44.37479" lon="4.82544">
        <ele>300</ele>
        <time>2008-08-24T09:56:44Z</time>
      </trkpt>
      <trkpt lat="44.37485" lon="4.82523">
        <ele>299</ele>
        <time>2008-08-24T09:58:34Z</time>
      </trkpt>
      <trkpt lat="44.37515" lon="4.82439">
        <ele>300</ele>
        <time>2008-08-24T09:58:51Z</time>
      </trkpt>
      <trkpt lat="44.3752" lon="4.82386">
        <ele>300</ele>
        <time>2008-08-24T09:59:00Z</time>
      </trkpt>
      <trkpt lat="44.37513" lon="4.82364">
        <ele>299</ele>
        <time>2008-08-24T09:59:04Z</time>
      </trkpt>
      <trkpt lat="44.37522" lon="4.82326">
        <ele>299</ele>
        <time>2008-08-24T09:59:11Z</time>
      </trkpt>
      <trkpt lat="44.37522" lon="4.82311">
        <ele>298</ele>
        <time>2008-08-24T09:59:13Z</time>
      </trkpt>
      <trkpt lat="44.37545" lon="4.82302">
        <ele>298</ele>
        <time>2008-08-24T09:59:23Z</time>
      </trkpt>
      <trkpt lat="44.37567" lon="4.82293">
        <ele>296</ele>
        <time>2008-08-24T09:59:32Z</time>
      </trkpt>
      <trkpt lat="44.37595" lon="4.82276">
        <ele>295</ele>
        <time>2008-08-24T09:59:39Z</time>
      </trkpt>
      <trkpt lat="44.37674" lon="4.82319">
        <ele>296</ele>
        <time>2008-08-24T10:00:00Z</time>
      </trkpt>
      <trkpt lat="44.37711" lon="4.82377">
        <ele>298</ele>
        <time>2008-08-24T10:00:15Z</time>
      </trkpt>
      <trkpt lat="44.37732" lon="4.82439">
        <ele>299</ele>
        <time>2008-08-24T10:00:29Z</time>
      </trkpt>
      <trkpt lat="44.37786" lon="4.82444">
        <ele>300</ele>
        <time>2008-08-24T10:00:45Z</time>
      </trkpt>
      <trkpt lat="44.37807" lon="4.82461">
        <ele>303</ele>
        <time>2008-08-24T10:00:56Z</time>
      </trkpt>
      <trkpt lat="44.37852" lon="4.82534">
        <ele>305</ele>
        <time>2008-08-24T10:01:20Z</time>
      </trkpt>
      <trkpt lat="44.37895" lon="4.8262">
        <ele>304</ele>
        <time>2008-08-24T10:01:41Z</time>
      </trkpt>
      <trkpt lat="44.37957" lon="4.82763">
        <ele>302</ele>
        <time>2008-08-24T10:02:03Z</time>
      </trkpt>
      <trkpt lat="44.37964" lon="4.82776">
        <ele>301</ele>
        <time>2008-08-24T10:02:05Z</time>
      </trkpt>
      <trkpt lat="44.3797" lon="4.82789">
        <ele>301</ele>
        <time>2008-08-24T10:02:07Z</time>
      </trkpt>
      <trkpt lat="44.38022" lon="4.82886">
        <ele>298</ele>
        <time>2008-08-24T10:02:21Z</time>
      </trkpt>
      <trkpt lat="44.3809" lon="4.8298">
        <ele>299</ele>
        <time>2008-08-24T10:02:40Z</time>
      </trkpt>
      <trkpt lat="44.38099" lon="4.82995">
        <ele>298</ele>
        <time>2008-08-24T10:02:43Z</time>
      </trkpt>
      <trkpt lat="44.38138" lon="4.83096">
        <ele>297</ele>
        <time>2008-08-24T10:03:00Z</time>
      </trkpt>
      <trkpt lat="44.3817" lon="4.8324">
        <ele>295</ele>
        <time>2008-08-24T10:03:19Z</time>
      </trkpt>
      <trkpt lat="44.38174" lon="4.83263">
        <ele>294</ele>
        <time>2008-08-24T10:03:22Z</time>
      </trkpt>
      <trkpt lat="44.38213" lon="4.83422">
        <ele>293</ele>
        <time>2008-08-24T10:03:43Z</time>
      </trkpt>
      <trkpt lat="44.38241" lon="4.83534">
        <ele>290</ele>
        <time>2008-08-24T10:03:57Z</time>
      </trkpt>
      <trkpt lat="44.38277" lon="4.83667">
        <ele>288</ele>
        <time>2008-08-24T10:04:16Z</time>
      </trkpt>
      <trkpt lat="44.38279" lon="4.8368">
        <ele>289</ele>
        <time>2008-08-24T10:04:18Z</time>
      </trkpt>
      <trkpt lat="44.3829" lon="4.8371">
        <ele>287</ele>
        <time>2008-08-24T10:04:23Z</time>
      </trkpt>
      <trkpt lat="44.38299" lon="4.83738">
        <ele>285</ele>
        <time>2008-08-24T10:04:28Z</time>
      </trkpt>
      <trkpt lat="44.38309" lon="4.83755">
        <ele>285</ele>
        <time>2008-08-24T10:04:32Z</time>
      </trkpt>
      <trkpt lat="44.38359" lon="4.83789">
        <ele>281</ele>
        <time>2008-08-24T10:04:48Z</time>
      </trkpt>
      <trkpt lat="44.38374" lon="4.83789">
        <ele>282</ele>
        <time>2008-08-24T10:04:58Z</time>
      </trkpt>
      <trkpt lat="44.38374" lon="4.8378">
        <ele>283</ele>
        <time>2008-08-24T10:05:22Z</time>
      </trkpt>
      <trkpt lat="44.3838" lon="4.838">
        <ele>285</ele>
        <time>2008-08-24T10:05:32Z</time>
      </trkpt>
      <trkpt lat="44.38384" lon="4.83847">
        <ele>285</ele>
        <time>2008-08-24T10:05:45Z</time>
      </trkpt>
      <trkpt lat="44.38369" lon="4.83905">
        <ele>285</ele>
        <time>2008-08-24T10:06:02Z</time>
      </trkpt>
      <trkpt lat="44.38344" lon="4.83956">
        <ele>282</ele>
        <time>2008-08-24T10:06:17Z</time>
      </trkpt>
      <trkpt lat="44.38333" lon="4.83984">
        <ele>280</ele>
        <time>2008-08-24T10:06:23Z</time>
      </trkpt>
      <trkpt lat="44.38339" lon="4.83989">
        <ele>281</ele>
        <time>2008-08-24T10:06:29Z</time>
      </trkpt>
      <trkpt lat="44.38427" lon="4.84143">
        <ele>278</ele>
        <time>2008-08-24T10:07:04Z</time>
      </trkpt>
      <trkpt lat="44.38444" lon="4.84199">
        <ele>277</ele>
        <time>2008-08-24T10:07:11Z</time>
      </trkpt>
      <trkpt lat="44.38479" lon="4.84289">
        <ele>276</ele>
        <time>2008-08-24T10:07:27Z</time>
      </trkpt>
      <trkpt lat="44.38492" lon="4.84377">
        <ele>276</ele>
        <time>2008-08-24T10:07:43Z</time>
      </trkpt>
      <trkpt lat="44.38457" lon="4.84396">
        <ele>275</ele>
        <time>2008-08-24T10:07:53Z</time>
      </trkpt>
      <trkpt lat="44.38393" lon="4.84441">
        <ele>275</ele>
        <time>2008-08-24T10:08:08Z</time>
      </trkpt>
      <trkpt lat="44.38376" lon="4.84456">
        <ele>273</ele>
        <time>2008-08-24T10:08:12Z</time>
      </trkpt>
      <trkpt lat="44.38356" lon="4.84471">
        <ele>274</ele>
        <time>2008-08-24T10:08:16Z</time>
      </trkpt>
      <trkpt lat="44.38333" lon="4.84512">
        <ele>273</ele>
        <time>2008-08-24T10:08:22Z</time>
      </trkpt>
      <trkpt lat="44.38324" lon="4.84527">
        <ele>271</ele>
        <time>2008-08-24T10:08:24Z</time>
      </trkpt>
      <trkpt lat="44.38299" lon="4.84564">
        <ele>269</ele>
        <time>2008-08-24T10:08:30Z</time>
      </trkpt>
      <trkpt lat="44.38281" lon="4.84602">
        <ele>270</ele>
        <time>2008-08-24T10:08:35Z</time>
      </trkpt>
      <trkpt lat="44.38288" lon="4.84649">
        <ele>268</ele>
        <time>2008-08-24T10:08:40Z</time>
      </trkpt>
      <trkpt lat="44.3829" lon="4.8469">
        <ele>268</ele>
        <time>2008-08-24T10:08:44Z</time>
      </trkpt>
      <trkpt lat="44.38294" lon="4.84718">
        <ele>267</ele>
        <time>2008-08-24T10:08:47Z</time>
      </trkpt>
      <trkpt lat="44.38307" lon="4.8477">
        <ele>267</ele>
        <time>2008-08-24T10:08:53Z</time>
      </trkpt>
      <trkpt lat="44.38294" lon="4.848">
        <ele>266</ele>
        <time>2008-08-24T10:08:58Z</time>
      </trkpt>
      <trkpt lat="44.38277" lon="4.84813">
        <ele>265</ele>
        <time>2008-08-24T10:09:01Z</time>
      </trkpt>
      <trkpt lat="44.3826" lon="4.8483">
        <ele>264</ele>
        <time>2008-08-24T10:09:04Z</time>
      </trkpt>
      <trkpt lat="44.38238" lon="4.84855">
        <ele>263</ele>
        <time>2008-08-24T10:09:08Z</time>
      </trkpt>
      <trkpt lat="44.38234" lon="4.84864">
        <ele>262</ele>
        <time>2008-08-24T10:09:18Z</time>
      </trkpt>
      <trkpt lat="44.38241" lon="4.84864">
        <ele>264</ele>
        <time>2008-08-24T10:10:46Z</time>
      </trkpt>
      <trkpt lat="44.38273" lon="4.84849">
        <ele>267</ele>
        <time>2008-08-24T10:11:04Z</time>
      </trkpt>
      <trkpt lat="44.38309" lon="4.84847">
        <ele>269</ele>
        <time>2008-08-24T10:11:17Z</time>
      </trkpt>
      <trkpt lat="44.38393" lon="4.84819">
        <ele>268</ele>
        <time>2008-08-24T10:11:40Z</time>
      </trkpt>
      <trkpt lat="44.38425" lon="4.8477">
        <ele>270</ele>
        <time>2008-08-24T10:11:54Z</time>
      </trkpt>
      <trkpt lat="44.38464" lon="4.84757">
        <ele>273</ele>
        <time>2008-08-24T10:12:07Z</time>
      </trkpt>
      <trkpt lat="44.38472" lon="4.84757">
        <ele>274</ele>
        <time>2008-08-24T10:12:10Z</time>
      </trkpt>
      <trkpt lat="44.38502" lon="4.8475">
        <ele>276</ele>
        <time>2008-08-24T10:12:22Z</time>
      </trkpt>
      <trkpt lat="44.38556" lon="4.8472">
        <ele>275</ele>
        <time>2008-08-24T10:12:44Z</time>
      </trkpt>
      <trkpt lat="44.38569" lon="4.84733">
        <ele>275</ele>
        <time>2008-08-24T10:12:50Z</time>
      </trkpt>
      <trkpt lat="44.38599" lon="4.84752">
        <ele>276</ele>
        <time>2008-08-24T10:13:05Z</time>
      </trkpt>
      <trkpt lat="44.38605" lon="4.84759">
        <ele>276</ele>
        <time>2008-08-24T10:13:13Z</time>
      </trkpt>
      <trkpt lat="44.38605" lon="4.84757">
        <ele>277</ele>
        <time>2008-08-24T10:13:17Z</time>
      </trkpt>
      <trkpt lat="44.38605" lon="4.84757">
        <ele>275</ele>
        <time>2008-08-24T10:13:20Z</time>
      </trkpt>
      <trkpt lat="44.38605" lon="4.84755">
        <ele>276</ele>
        <time>2008-08-24T10:13:37Z</time>
      </trkpt>
      <trkpt lat="44.38629" lon="4.848">
        <ele>276</ele>
        <time>2008-08-24T10:13:54Z</time>
      </trkpt>
      <trkpt lat="44.3867" lon="4.8487">
        <ele>275</ele>
        <time>2008-08-24T10:14:10Z</time>
      </trkpt>
      <trkpt lat="44.38706" lon="4.84984">
        <ele>273</ele>
        <time>2008-08-24T10:14:27Z</time>
      </trkpt>
      <trkpt lat="44.38717" lon="4.8501">
        <ele>272</ele>
        <time>2008-08-24T10:14:31Z</time>
      </trkpt>
      <trkpt lat="44.38721" lon="4.85029">
        <ele>272</ele>
        <time>2008-08-24T10:14:39Z</time>
      </trkpt>
      <trkpt lat="44.38721" lon="4.85038">
        <ele>271</ele>
        <time>2008-08-24T10:15:08Z</time>
      </trkpt>
      <trkpt lat="44.38726" lon="4.85051">
        <ele>270</ele>
        <time>2008-08-24T10:15:13Z</time>
      </trkpt>
      <trkpt lat="44.3873" lon="4.85107">
        <ele>267</ele>
        <time>2008-08-24T10:15:24Z</time>
      </trkpt>
      <trkpt lat="44.38747" lon="4.85156">
        <ele>265</ele>
        <time>2008-08-24T10:15:37Z</time>
      </trkpt>
      <trkpt lat="44.38747" lon="4.85169">
        <ele>264</ele>
        <time>2008-08-24T10:15:40Z</time>
      </trkpt>
      <trkpt lat="44.38745" lon="4.85173">
        <ele>264</ele>
        <time>2008-08-24T10:15:42Z</time>
      </trkpt>
      <trkpt lat="44.38743" lon="4.85175">
        <ele>264</ele>
        <time>2008-08-24T10:15:44Z</time>
      </trkpt>
      <trkpt lat="44.38695" lon="4.85194">
        <ele>268</ele>
        <time>2008-08-24T10:16:00Z</time>
      </trkpt>
      <trkpt lat="44.38653" lon="4.85194">
        <ele>268</ele>
        <time>2008-08-24T10:16:13Z</time>
      </trkpt>
      <trkpt lat="44.38644" lon="4.8519">
        <ele>268</ele>
        <time>2008-08-24T10:16:17Z</time>
      </trkpt>
      <trkpt lat="44.38601" lon="4.85182">
        <ele>266</ele>
        <time>2008-08-24T10:16:31Z</time>
      </trkpt>
      <trkpt lat="44.38547" lon="4.85175">
        <ele>264</ele>
        <time>2008-08-24T10:16:47Z</time>
      </trkpt>
      <trkpt lat="44.3847" lon="4.85235">
        <ele>265</ele>
        <time>2008-08-24T10:17:06Z</time>
      </trkpt>
      <trkpt lat="44.38419" lon="4.85252">
        <ele>263</ele>
        <time>2008-08-24T10:17:17Z</time>
      </trkpt>
      <trkpt lat="44.38406" lon="4.85244">
        <ele>263</ele>
        <time>2008-08-24T10:17:20Z</time>
      </trkpt>
      <trkpt lat="44.38386" lon="4.85218">
        <ele>265</ele>
        <time>2008-08-24T10:17:26Z</time>
      </trkpt>
      <trkpt lat="44.38346" lon="4.85158">
        <ele>265</ele>
        <time>2008-08-24T10:17:42Z</time>
      </trkpt>
      <trkpt lat="44.38329" lon="4.85126">
        <ele>264</ele>
        <time>2008-08-24T10:17:48Z</time>
      </trkpt>
      <trkpt lat="44.38311" lon="4.85109">
        <ele>262</ele>
        <time>2008-08-24T10:17:52Z</time>
      </trkpt>
      <trkpt lat="44.38292" lon="4.85102">
        <ele>261</ele>
        <time>2008-08-24T10:17:56Z</time>
      </trkpt>
      <trkpt lat="44.38299" lon="4.85124">
        <ele>260</ele>
        <time>2008-08-24T10:18:07Z</time>
      </trkpt>
      <trkpt lat="44.38299" lon="4.85128">
        <ele>259</ele>
        <time>2008-08-24T10:18:20Z</time>
      </trkpt>
      <trkpt lat="44.38299" lon="4.85128">
        <ele>262</ele>
        <time>2008-08-24T10:18:26Z</time>
      </trkpt>
      <trkpt lat="44.38303" lon="4.85137">
        <ele>262</ele>
        <time>2008-08-24T10:19:16Z</time>
      </trkpt>
      <trkpt lat="44.38305" lon="4.85147">
        <ele>261</ele>
        <time>2008-08-24T10:19:18Z</time>
      </trkpt>
      <trkpt lat="44.38326" lon="4.85186">
        <ele>259</ele>
        <time>2008-08-24T10:19:27Z</time>
      </trkpt>
      <trkpt lat="44.38329" lon="4.85205">
        <ele>258</ele>
        <time>2008-08-24T10:19:32Z</time>
      </trkpt>
      <trkpt lat="44.38333" lon="4.85214">
        <ele>257</ele>
        <time>2008-08-24T10:19:36Z</time>
      </trkpt>
      <trkpt lat="44.38339" lon="4.85218">
        <ele>257</ele>
        <time>2008-08-24T10:19:40Z</time>
      </trkpt>
      <trkpt lat="44.38344" lon="4.8522">
        <ele>259</ele>
        <time>2008-08-24T10:19:42Z</time>
      </trkpt>
      <trkpt lat="44.38352" lon="4.85252">
        <ele>256</ele>
        <time>2008-08-24T10:19:56Z</time>
      </trkpt>
      <trkpt lat="44.38354" lon="4.85274">
        <ele>253</ele>
        <time>2008-08-24T10:20:01Z</time>
      </trkpt>
      <trkpt lat="44.38356" lon="4.85291">
        <ele>249</ele>
        <time>2008-08-24T10:20:05Z</time>
      </trkpt>
      <trkpt lat="44.38361" lon="4.85308">
        <ele>246</ele>
        <time>2008-08-24T10:20:09Z</time>
      </trkpt>
      <trkpt lat="44.38361" lon="4.85313">
        <ele>246</ele>
        <time>2008-08-24T10:20:10Z</time>
      </trkpt>
      <trkpt lat="44.38371" lon="4.85338">
        <ele>242</ele>
        <time>2008-08-24T10:20:18Z</time>
      </trkpt>
      <trkpt lat="44.38374" lon="4.85343">
        <ele>241</ele>
        <time>2008-08-24T10:20:20Z</time>
      </trkpt>
      <trkpt lat="44.38389" lon="4.85364">
        <ele>237</ele>
        <time>2008-08-24T10:20:25Z</time>
      </trkpt>
      <trkpt lat="44.38391" lon="4.85368">
        <ele>237</ele>
        <time>2008-08-24T10:20:26Z</time>
      </trkpt>
      <trkpt lat="44.38397" lon="4.85383">
        <ele>233</ele>
        <time>2008-08-24T10:20:29Z</time>
      </trkpt>
      <trkpt lat="44.3841" lon="4.85409">
        <ele>229</ele>
        <time>2008-08-24T10:20:34Z</time>
      </trkpt>
      <trkpt lat="44.38419" lon="4.85433">
        <ele>227</ele>
        <time>2008-08-24T10:20:38Z</time>
      </trkpt>
      <trkpt lat="44.38425" lon="4.85452">
        <ele>223</ele>
        <time>2008-08-24T10:20:42Z</time>
      </trkpt>
      <trkpt lat="44.38429" lon="4.85473">
        <ele>219</ele>
        <time>2008-08-24T10:20:46Z</time>
      </trkpt>
      <trkpt lat="44.38432" lon="4.85488">
        <ele>215</ele>
        <time>2008-08-24T10:20:49Z</time>
      </trkpt>
      <trkpt lat="44.38434" lon="4.85508">
        <ele>212</ele>
        <time>2008-08-24T10:20:52Z</time>
      </trkpt>
      <trkpt lat="44.38436" lon="4.85534">
        <ele>209</ele>
        <time>2008-08-24T10:20:57Z</time>
      </trkpt>
      <trkpt lat="44.38434" lon="4.85544">
        <ele>206</ele>
        <time>2008-08-24T10:21:00Z</time>
      </trkpt>
      <trkpt lat="44.38453" lon="4.85557">
        <ele>205</ele>
        <time>2008-08-24T10:21:15Z</time>
      </trkpt>
      <trkpt lat="44.38464" lon="4.85546">
        <ele>207</ele>
        <time>2008-08-24T10:21:47Z</time>
      </trkpt>
      <trkpt lat="44.38524" lon="4.85538">
        <ele>209</ele>
        <time>2008-08-24T10:22:03Z</time>
      </trkpt>
      <trkpt lat="44.3859" lon="4.85525">
        <ele>212</ele>
        <time>2008-08-24T10:22:25Z</time>
      </trkpt>
      <trkpt lat="44.38618" lon="4.85514">
        <ele>215</ele>
        <time>2008-08-24T10:22:35Z</time>
      </trkpt>
      <trkpt lat="44.38676" lon="4.85514">
        <ele>215</ele>
        <time>2008-08-24T10:22:53Z</time>
      </trkpt>
      <trkpt lat="44.38719" lon="4.85516">
        <ele>218</ele>
        <time>2008-08-24T10:23:06Z</time>
      </trkpt>
      <trkpt lat="44.38788" lon="4.85516">
        <ele>218</ele>
        <time>2008-08-24T10:23:26Z</time>
      </trkpt>
      <trkpt lat="44.38794" lon="4.85512">
        <ele>217</ele>
        <time>2008-08-24T10:23:28Z</time>
      </trkpt>
      <trkpt lat="44.38839" lon="4.85467">
        <ele>220</ele>
        <time>2008-08-24T10:23:45Z</time>
      </trkpt>
      <trkpt lat="44.3885" lon="4.85439">
        <ele>219</ele>
        <time>2008-08-24T10:24:10Z</time>
      </trkpt>
      <trkpt lat="44.38852" lon="4.85422">
        <ele>219</ele>
        <time>2008-08-24T10:24:43Z</time>
      </trkpt>
      <trkpt lat="44.38854" lon="4.8542">
        <ele>217</ele>
        <time>2008-08-24T10:24:45Z</time>
      </trkpt>
      <trkpt lat="44.38859" lon="4.85416">
        <ele>214</ele>
        <time>2008-08-24T10:24:51Z</time>
      </trkpt>
      <trkpt lat="44.38865" lon="4.8542">
        <ele>215</ele>
        <time>2008-08-24T10:25:14Z</time>
      </trkpt>
      <trkpt lat="44.38865" lon="4.85422">
        <ele>217</ele>
        <time>2008-08-24T10:25:22Z</time>
      </trkpt>
      <trkpt lat="44.38865" lon="4.85424">
        <ele>215</ele>
        <time>2008-08-24T10:25:30Z</time>
      </trkpt>
      <trkpt lat="44.38865" lon="4.85428">
        <ele>215</ele>
        <time>2008-08-24T10:26:00Z</time>
      </trkpt>
      <trkpt lat="44.38865" lon="4.85428">
        <ele>215</ele>
        <time>2008-08-24T10:26:26Z</time>
      </trkpt>
      <trkpt lat="44.38874" lon="4.85433">
        <ele>215</ele>
        <time>2008-08-24T10:26:30Z</time>
      </trkpt>
      <trkpt lat="44.38878" lon="4.85437">
        <ele>217</ele>
        <time>2008-08-24T10:26:33Z</time>
      </trkpt>
      <trkpt lat="44.38897" lon="4.85461">
        <ele>220</ele>
        <time>2008-08-24T10:26:50Z</time>
      </trkpt>
      <trkpt lat="44.38916" lon="4.85497">
        <ele>223</ele>
        <time>2008-08-24T10:27:08Z</time>
      </trkpt>
      <trkpt lat="44.38919" lon="4.85503">
        <ele>224</ele>
        <time>2008-08-24T10:27:11Z</time>
      </trkpt>
      <trkpt lat="44.38929" lon="4.85501">
        <ele>224</ele>
        <time>2008-08-24T10:27:17Z</time>
      </trkpt>
      <trkpt lat="44.38977" lon="4.85486">
        <ele>227</ele>
        <time>2008-08-24T10:27:39Z</time>
      </trkpt>
      <trkpt lat="44.38981" lon="4.85486">
        <ele>227</ele>
        <time>2008-08-24T10:27:41Z</time>
      </trkpt>
      <trkpt lat="44.38994" lon="4.85478">
        <ele>227</ele>
        <time>2008-08-24T10:27:47Z</time>
      </trkpt>
      <trkpt lat="44.39015" lon="4.85435">
        <ele>228</ele>
        <time>2008-08-24T10:28:03Z</time>
      </trkpt>
      <trkpt lat="44.39026" lon="4.85355">
        <ele>229</ele>
        <time>2008-08-24T10:28:25Z</time>
      </trkpt>
      <trkpt lat="44.39017" lon="4.85297">
        <ele>233</ele>
        <time>2008-08-24T10:28:45Z</time>
      </trkpt>
      <trkpt lat="44.39013" lon="4.85289">
        <ele>234</ele>
        <time>2008-08-24T10:28:49Z</time>
      </trkpt>
      <trkpt lat="44.38989" lon="4.85225">
        <ele>237</ele>
        <time>2008-08-24T10:29:16Z</time>
      </trkpt>
      <trkpt lat="44.38989" lon="4.85222">
        <ele>237</ele>
        <time>2008-08-24T10:29:17Z</time>
      </trkpt>
      <trkpt lat="44.38985" lon="4.85156">
        <ele>240</ele>
        <time>2008-08-24T10:29:37Z</time>
      </trkpt>
      <trkpt lat="44.38985" lon="4.85149">
        <ele>241</ele>
        <time>2008-08-24T10:29:39Z</time>
      </trkpt>
      <trkpt lat="44.38974" lon="4.85057">
        <ele>243</ele>
        <time>2008-08-24T10:30:03Z</time>
      </trkpt>
      <trkpt lat="44.38972" lon="4.85027">
        <ele>245</ele>
        <time>2008-08-24T10:30:10Z</time>
      </trkpt>
      <trkpt lat="44.38983" lon="4.84903">
        <ele>246</ele>
        <time>2008-08-24T10:30:36Z</time>
      </trkpt>
      <trkpt lat="44.38983" lon="4.84875">
        <ele>246</ele>
        <time>2008-08-24T10:30:49Z</time>
      </trkpt>
      <trkpt lat="44.38983" lon="4.84875">
        <ele>246</ele>
        <time>2008-08-24T10:30:50Z</time>
      </trkpt>
      <trkpt lat="44.38983" lon="4.84877">
        <ele>246</ele>
        <time>2008-08-24T10:30:52Z</time>
      </trkpt>
      <trkpt lat="44.38983" lon="4.84868">
        <ele>247</ele>
        <time>2008-08-24T10:30:56Z</time>
      </trkpt>
      <trkpt lat="44.38974" lon="4.8484">
        <ele>246</ele>
        <time>2008-08-24T10:31:02Z</time>
      </trkpt>
      <trkpt lat="44.38951" lon="4.8484">
        <ele>242</ele>
        <time>2008-08-24T10:31:06Z</time>
      </trkpt>
      <trkpt lat="44.38914" lon="4.8486">
        <ele>239</ele>
        <time>2008-08-24T10:31:11Z</time>
      </trkpt>
      <trkpt lat="44.3888" lon="4.84877">
        <ele>236</ele>
        <time>2008-08-24T10:31:16Z</time>
      </trkpt>
      <trkpt lat="44.38846" lon="4.84892">
        <ele>237</ele>
        <time>2008-08-24T10:31:21Z</time>
      </trkpt>
      <trkpt lat="44.38835" lon="4.84886">
        <ele>238</ele>
        <time>2008-08-24T10:31:23Z</time>
      </trkpt>
      <trkpt lat="44.38831" lon="4.84866">
        <ele>240</ele>
        <time>2008-08-24T10:31:27Z</time>
      </trkpt>
      <trkpt lat="44.38822" lon="4.84862">
        <ele>240</ele>
        <time>2008-08-24T10:31:34Z</time>
      </trkpt>
      <trkpt lat="44.38824" lon="4.84864">
        <ele>240</ele>
        <time>2008-08-24T10:31:35Z</time>
      </trkpt>
      <trkpt lat="44.38829" lon="4.84883">
        <ele>242</ele>
        <time>2008-08-24T10:31:47Z</time>
      </trkpt>
      <trkpt lat="44.38829" lon="4.84883">
        <ele>236</ele>
        <time>2008-08-24T10:49:07Z</time>
      </trkpt>
      <trkpt lat="44.38829" lon="4.84883">
        <ele>238</ele>
        <time>2008-08-24T10:49:08Z</time>
      </trkpt>
      <trkpt lat="44.38829" lon="4.84883">
        <ele>238</ele>
        <time>2008-08-24T10:49:09Z</time>
      </trkpt>
      <trkpt lat="44.38829" lon="4.84883">
        <ele>240</ele>
        <time>2008-08-24T10:49:52Z</time>
      </trkpt>
      <trkpt lat="44.38837" lon="4.84851">
        <ele>239</ele>
        <time>2008-08-24T10:49:56Z</time>
      </trkpt>
      <trkpt lat="44.38837" lon="4.84851">
        <ele>239</ele>
        <time>2008-08-24T10:50:03Z</time>
      </trkpt>
      <trkpt lat="44.38839" lon="4.84815">
        <ele>240</ele>
        <time>2008-08-24T10:50:14Z</time>
      </trkpt>
      <trkpt lat="44.38839" lon="4.8481">
        <ele>240</ele>
        <time>2008-08-24T10:50:15Z</time>
      </trkpt>
      <trkpt lat="44.38833" lon="4.848">
        <ele>240</ele>
        <time>2008-08-24T10:50:19Z</time>
      </trkpt>
      <trkpt lat="44.38779" lon="4.84785">
        <ele>243</ele>
        <time>2008-08-24T10:50:38Z</time>
      </trkpt>
      <trkpt lat="44.38736" lon="4.84729">
        <ele>244</ele>
        <time>2008-08-24T10:50:57Z</time>
      </trkpt>
      <trkpt lat="44.38704" lon="4.84611">
        <ele>246</ele>
        <time>2008-08-24T10:51:20Z</time>
      </trkpt>
      <trkpt lat="44.38659" lon="4.84392">
        <ele>248</ele>
        <time>2008-08-24T10:51:53Z</time>
      </trkpt>
      <trkpt lat="44.38627" lon="4.8431">
        <ele>251</ele>
        <time>2008-08-24T10:52:11Z</time>
      </trkpt>
      <trkpt lat="44.38608" lon="4.84222">
        <ele>253</ele>
        <time>2008-08-24T10:52:31Z</time>
      </trkpt>
      <trkpt lat="44.38588" lon="4.84152">
        <ele>257</ele>
        <time>2008-08-24T10:52:50Z</time>
      </trkpt>
      <trkpt lat="44.38586" lon="4.84147">
        <ele>257</ele>
        <time>2008-08-24T10:52:51Z</time>
      </trkpt>
      <trkpt lat="44.38558" lon="4.84049">
        <ele>257</ele>
        <time>2008-08-24T10:53:15Z</time>
      </trkpt>
      <trkpt lat="44.3855" lon="4.84023">
        <ele>259</ele>
        <time>2008-08-24T10:53:21Z</time>
      </trkpt>
      <trkpt lat="44.3852" lon="4.83941">
        <ele>262</ele>
        <time>2008-08-24T10:53:43Z</time>
      </trkpt>
      <trkpt lat="44.38515" lon="4.8386">
        <ele>262</ele>
        <time>2008-08-24T10:54:01Z</time>
      </trkpt>
      <trkpt lat="44.38545" lon="4.8377">
        <ele>263</ele>
        <time>2008-08-24T10:54:18Z</time>
      </trkpt>
      <trkpt lat="44.38592" lon="4.83729">
        <ele>266</ele>
        <time>2008-08-24T10:54:36Z</time>
      </trkpt>
      <trkpt lat="44.38644" lon="4.83699">
        <ele>269</ele>
        <time>2008-08-24T10:54:56Z</time>
      </trkpt>
      <trkpt lat="44.38668" lon="4.83727">
        <ele>273</ele>
        <time>2008-08-24T10:55:14Z</time>
      </trkpt>
      <trkpt lat="44.38683" lon="4.83774">
        <ele>276</ele>
        <time>2008-08-24T10:55:29Z</time>
      </trkpt>
      <trkpt lat="44.38687" lon="4.83787">
        <ele>277</ele>
        <time>2008-08-24T10:55:35Z</time>
      </trkpt>
      <trkpt lat="44.38691" lon="4.83787">
        <ele>278</ele>
        <time>2008-08-24T10:55:38Z</time>
      </trkpt>
      <trkpt lat="44.38693" lon="4.83795">
        <ele>279</ele>
        <time>2008-08-24T10:55:42Z</time>
      </trkpt>
      <trkpt lat="44.38685" lon="4.83836">
        <ele>282</ele>
        <time>2008-08-24T10:55:56Z</time>
      </trkpt>
      <trkpt lat="44.3868" lon="4.83864">
        <ele>283</ele>
        <time>2008-08-24T10:56:06Z</time>
      </trkpt>
      <trkpt lat="44.3868" lon="4.8389">
        <ele>284</ele>
        <time>2008-08-24T10:56:15Z</time>
      </trkpt>
      <trkpt lat="44.3868" lon="4.83928">
        <ele>282</ele>
        <time>2008-08-24T10:56:23Z</time>
      </trkpt>
      <trkpt lat="44.38685" lon="4.83956">
        <ele>281</ele>
        <time>2008-08-24T10:56:27Z</time>
      </trkpt>
      <trkpt lat="44.38728" lon="4.84042">
        <ele>280</ele>
        <time>2008-08-24T10:56:41Z</time>
      </trkpt>
      <trkpt lat="44.38738" lon="4.84055">
        <ele>281</ele>
        <time>2008-08-24T10:56:44Z</time>
      </trkpt>
      <trkpt lat="44.38747" lon="4.84055">
        <ele>282</ele>
        <time>2008-08-24T10:56:48Z</time>
      </trkpt>
      <trkpt lat="44.38749" lon="4.84053">
        <ele>283</ele>
        <time>2008-08-24T10:56:50Z</time>
      </trkpt>
      <trkpt lat="44.3876" lon="4.84047">
        <ele>285</ele>
        <time>2008-08-24T10:56:56Z</time>
      </trkpt>
      <trkpt lat="44.38773" lon="4.84085">
        <ele>285</ele>
        <time>2008-08-24T10:57:08Z</time>
      </trkpt>
      <trkpt lat="44.38803" lon="4.84152">
        <ele>282</ele>
        <time>2008-08-24T10:57:24Z</time>
      </trkpt>
      <trkpt lat="44.38811" lon="4.84171">
        <ele>282</ele>
        <time>2008-08-24T10:57:27Z</time>
      </trkpt>
      <trkpt lat="44.38822" lon="4.84203">
        <ele>282</ele>
        <time>2008-08-24T10:57:32Z</time>
      </trkpt>
      <trkpt lat="44.38835" lon="4.8424">
        <ele>282</ele>
        <time>2008-08-24T10:57:38Z</time>
      </trkpt>
      <trkpt lat="44.38848" lon="4.84246">
        <ele>283</ele>
        <time>2008-08-24T10:57:42Z</time>
      </trkpt>
      <trkpt lat="44.38859" lon="4.84255">
        <ele>282</ele>
        <time>2008-08-24T10:57:46Z</time>
      </trkpt>
      <trkpt lat="44.38886" lon="4.84321">
        <ele>281</ele>
        <time>2008-08-24T10:58:01Z</time>
      </trkpt>
      <trkpt lat="44.38889" lon="4.84328">
        <ele>280</ele>
        <time>2008-08-24T10:58:03Z</time>
      </trkpt>
      <trkpt lat="44.38914" lon="4.84321">
        <ele>281</ele>
        <time>2008-08-24T10:58:17Z</time>
      </trkpt>
      <trkpt lat="44.38974" lon="4.84293">
        <ele>280</ele>
        <time>2008-08-24T10:58:34Z</time>
      </trkpt>
      <trkpt lat="44.38977" lon="4.84278">
        <ele>280</ele>
        <time>2008-08-24T10:58:38Z</time>
      </trkpt>
      <trkpt lat="44.38972" lon="4.84231">
        <ele>281</ele>
        <time>2008-08-24T10:58:49Z</time>
      </trkpt>
      <trkpt lat="44.38959" lon="4.84192">
        <ele>283</ele>
        <time>2008-08-24T10:58:58Z</time>
      </trkpt>
      <trkpt lat="44.38932" lon="4.84107">
        <ele>284</ele>
        <time>2008-08-24T10:59:15Z</time>
      </trkpt>
      <trkpt lat="44.38919" lon="4.84038">
        <ele>286</ele>
        <time>2008-08-24T10:59:31Z</time>
      </trkpt>
      <trkpt lat="44.38912" lon="4.84019">
        <ele>287</ele>
        <time>2008-08-24T10:59:36Z</time>
      </trkpt>
      <trkpt lat="44.38893" lon="4.83974">
        <ele>289</ele>
        <time>2008-08-24T10:59:52Z</time>
      </trkpt>
      <trkpt lat="44.38867" lon="4.83905">
        <ele>290</ele>
        <time>2008-08-24T11:00:13Z</time>
      </trkpt>
      <trkpt lat="44.38867" lon="4.83903">
        <ele>290</ele>
        <time>2008-08-24T11:01:23Z</time>
      </trkpt>
      <trkpt lat="44.38867" lon="4.83903">
        <ele>297</ele>
        <time>2008-08-24T11:01:25Z</time>
      </trkpt>
      <trkpt lat="44.38867" lon="4.83903">
        <ele>297</ele>
        <time>2008-08-24T11:01:26Z</time>
      </trkpt>
      <trkpt lat="44.38874" lon="4.83654">
        <ele>299</ele>
        <time>2008-08-24T11:01:43Z</time>
      </trkpt>
      <trkpt lat="44.38871" lon="4.83643">
        <ele>301</ele>
        <time>2008-08-24T11:01:49Z</time>
      </trkpt>
      <trkpt lat="44.38846" lon="4.83585">
        <ele>301</ele>
        <time>2008-08-24T11:02:05Z</time>
      </trkpt>
      <trkpt lat="44.38867" lon="4.83536">
        <ele>300</ele>
        <time>2008-08-24T11:02:15Z</time>
      </trkpt>
      <trkpt lat="44.38908" lon="4.83456">
        <ele>300</ele>
        <time>2008-08-24T11:02:33Z</time>
      </trkpt>
      <trkpt lat="44.3891" lon="4.83448">
        <ele>300</ele>
        <time>2008-08-24T11:02:35Z</time>
      </trkpt>
      <trkpt lat="44.38908" lon="4.83433">
        <ele>302</ele>
        <time>2008-08-24T11:02:38Z</time>
      </trkpt>
      <trkpt lat="44.38869" lon="4.83363">
        <ele>293</ele>
        <time>2008-08-24T11:02:55Z</time>
      </trkpt>
      <trkpt lat="44.38867" lon="4.83349">
        <ele>294</ele>
        <time>2008-08-24T11:02:56Z</time>
      </trkpt>
      <trkpt lat="44.38871" lon="4.83338">
        <ele>303</ele>
        <time>2008-08-24T11:03:01Z</time>
      </trkpt>
      <trkpt lat="44.3891" lon="4.83289">
        <ele>306</ele>
        <time>2008-08-24T11:03:18Z</time>
      </trkpt>
      <trkpt lat="44.38936" lon="4.8325">
        <ele>307</ele>
        <time>2008-08-24T11:03:31Z</time>
      </trkpt>
      <trkpt lat="44.38959" lon="4.83145">
        <ele>309</ele>
        <time>2008-08-24T11:03:57Z</time>
      </trkpt>
      <trkpt lat="44.38964" lon="4.83139">
        <ele>308</ele>
        <time>2008-08-24T11:03:59Z</time>
      </trkpt>
      <trkpt lat="44.38974" lon="4.83141">
        <ele>309</ele>
        <time>2008-08-24T11:04:02Z</time>
      </trkpt>
      <trkpt lat="44.39022" lon="4.83137">
        <ele>309</ele>
        <time>2008-08-24T11:04:17Z</time>
      </trkpt>
      <trkpt lat="44.39024" lon="4.83137">
        <ele>309</ele>
        <time>2008-08-24T11:04:18Z</time>
      </trkpt>
      <trkpt lat="44.39019" lon="4.83115">
        <ele>309</ele>
        <time>2008-08-24T11:04:22Z</time>
      </trkpt>
      <trkpt lat="44.38968" lon="4.82971">
        <ele>311</ele>
        <time>2008-08-24T11:04:43Z</time>
      </trkpt>
      <trkpt lat="44.38953" lon="4.82935">
        <ele>313</ele>
        <time>2008-08-24T11:04:49Z</time>
      </trkpt>
      <trkpt lat="44.38923" lon="4.82849">
        <ele>313</ele>
        <time>2008-08-24T11:05:04Z</time>
      </trkpt>
      <trkpt lat="44.38919" lon="4.82838">
        <ele>313</ele>
        <time>2008-08-24T11:05:06Z</time>
      </trkpt>
      <trkpt lat="44.38916" lon="4.82781">
        <ele>316</ele>
        <time>2008-08-24T11:05:16Z</time>
      </trkpt>
      <trkpt lat="44.38921" lon="4.82701">
        <ele>316</ele>
        <time>2008-08-24T11:05:31Z</time>
      </trkpt>
      <trkpt lat="44.38915" lon="4.82663">
        <ele>311</ele>
        <time>2008-08-24T11:05:36Z</time>
      </trkpt>
      <trkpt lat="44.3892" lon="4.82616">
        <ele>311</ele>
        <time>2008-08-24T11:06:27Z</time>
      </trkpt>
      <trkpt lat="44.38923" lon="4.82563">
        <ele>312</ele>
        <time>2008-08-24T11:06:28Z</time>
      </trkpt>
      <trkpt lat="44.38944" lon="4.82501">
        <ele>312</ele>
        <time>2008-08-24T11:06:29Z</time>
      </trkpt>
      <trkpt lat="44.38971" lon="4.82439">
        <ele>315</ele>
        <time>2008-08-24T11:06:44Z</time>
      </trkpt>
      <trkpt lat="44.39006" lon="4.82395">
        <ele>315</ele>
        <time>2008-08-24T11:06:47Z</time>
      </trkpt>
      <trkpt lat="44.39013" lon="4.82371">
        <ele>315</ele>
        <time>2008-08-24T11:06:52Z</time>
      </trkpt>
      <trkpt lat="44.39017" lon="4.82361">
        <ele>315</ele>
        <time>2008-08-24T11:07:22Z</time>
      </trkpt>
      <trkpt lat="44.3902" lon="4.8234">
        <ele>315</ele>
        <time>2008-08-24T11:07:40Z</time>
      </trkpt>
      <trkpt lat="44.39022" lon="4.82296">
        <ele>321</ele>
        <time>2008-08-24T11:08:21Z</time>
      </trkpt>
      <trkpt lat="44.39019" lon="4.8227">
        <ele>318</ele>
        <time>2008-08-24T11:08:30Z</time>
      </trkpt>
      <trkpt lat="44.39026" lon="4.82242">
        <ele>314</ele>
        <time>2008-08-24T11:08:35Z</time>
      </trkpt>
      <trkpt lat="44.39028" lon="4.82238">
        <ele>314</ele>
        <time>2008-08-24T11:08:36Z</time>
      </trkpt>
      <trkpt lat="44.3905" lon="4.82244">
        <ele>316</ele>
        <time>2008-08-24T11:08:44Z</time>
      </trkpt>
      <trkpt lat="44.39103" lon="4.82276">
        <ele>319</ele>
        <time>2008-08-24T11:09:06Z</time>
      </trkpt>
      <trkpt lat="44.39118" lon="4.82285">
        <ele>323</ele>
        <time>2008-08-24T11:09:14Z</time>
      </trkpt>
      <trkpt lat="44.3912" lon="4.82285">
        <ele>323</ele>
        <time>2008-08-24T11:09:15Z</time>
      </trkpt>
      <trkpt lat="44.39146" lon="4.823">
        <ele>326</ele>
        <time>2008-08-24T11:09:29Z</time>
      </trkpt>
      <trkpt lat="44.39163" lon="4.82332">
        <ele>327</ele>
        <time>2008-08-24T11:09:46Z</time>
      </trkpt>
      <trkpt lat="44.39195" lon="4.82396">
        <ele>326</ele>
        <time>2008-08-24T11:10:04Z</time>
      </trkpt>
      <trkpt lat="44.39279" lon="4.82463">
        <ele>326</ele>
        <time>2008-08-24T11:10:30Z</time>
      </trkpt>
      <trkpt lat="44.39341" lon="4.82478">
        <ele>326</ele>
        <time>2008-08-24T11:10:48Z</time>
      </trkpt>
      <trkpt lat="44.39438" lon="4.82527">
        <ele>326</ele>
        <time>2008-08-24T11:11:17Z</time>
      </trkpt>
      <trkpt lat="44.39444" lon="4.82534">
        <ele>326</ele>
        <time>2008-08-24T11:11:19Z</time>
      </trkpt>
      <trkpt lat="44.39455" lon="4.82559">
        <ele>326</ele>
        <time>2008-08-24T11:11:23Z</time>
      </trkpt>
      <trkpt lat="44.39492" lon="4.82617">
        <ele>326</ele>
        <time>2008-08-24T11:11:35Z</time>
      </trkpt>
      <trkpt lat="44.39517" lon="4.82658">
        <ele>325</ele>
        <time>2008-08-24T11:11:43Z</time>
      </trkpt>
      <trkpt lat="44.39592" lon="4.82716">
        <ele>325</ele>
        <time>2008-08-24T11:11:59Z</time>
      </trkpt>
      <trkpt lat="44.39625" lon="4.82731">
        <ele>324</ele>
        <time>2008-08-24T11:12:06Z</time>
      </trkpt>
      <trkpt lat="44.39663" lon="4.82744">
        <ele>324</ele>
        <time>2008-08-24T11:12:15Z</time>
      </trkpt>
      <trkpt lat="44.39665" lon="4.82774">
        <ele>323</ele>
        <time>2008-08-24T11:12:22Z</time>
      </trkpt>
      <trkpt lat="44.39663" lon="4.82785">
        <ele>324</ele>
        <time>2008-08-24T11:12:24Z</time>
      </trkpt>
      <trkpt lat="44.39661" lon="4.82856">
        <ele>324</ele>
        <time>2008-08-24T11:12:35Z</time>
      </trkpt>
      <trkpt lat="44.39652" lon="4.82879">
        <ele>323</ele>
        <time>2008-08-24T11:12:39Z</time>
      </trkpt>
      <trkpt lat="44.39607" lon="4.82918">
        <ele>319</ele>
        <time>2008-08-24T11:12:50Z</time>
      </trkpt>
      <trkpt lat="44.39605" lon="4.8292">
        <ele>320</ele>
        <time>2008-08-24T11:12:51Z</time>
      </trkpt>
      <trkpt lat="44.39539" lon="4.82984">
        <ele>319</ele>
        <time>2008-08-24T11:13:10Z</time>
      </trkpt>
      <trkpt lat="44.39539" lon="4.83031">
        <ele>313</ele>
        <time>2008-08-24T11:13:22Z</time>
      </trkpt>
      <trkpt lat="44.39536" lon="4.83053">
        <ele>312</ele>
        <time>2008-08-24T11:13:25Z</time>
      </trkpt>
      <trkpt lat="44.39545" lon="4.83083">
        <ele>315</ele>
        <time>2008-08-24T11:13:31Z</time>
      </trkpt>
      <trkpt lat="44.39554" lon="4.83113">
        <ele>315</ele>
        <time>2008-08-24T11:13:36Z</time>
      </trkpt>
      <trkpt lat="44.39556" lon="4.83192">
        <ele>313</ele>
        <time>2008-08-24T11:13:50Z</time>
      </trkpt>
      <trkpt lat="44.39522" lon="4.83285">
        <ele>311</ele>
        <time>2008-08-24T11:14:07Z</time>
      </trkpt>
      <trkpt lat="44.39528" lon="4.83308">
        <ele>310</ele>
        <time>2008-08-24T11:14:12Z</time>
      </trkpt>
      <trkpt lat="44.39532" lon="4.83326">
        <ele>311</ele>
        <time>2008-08-24T11:14:16Z</time>
      </trkpt>
      <trkpt lat="44.39558" lon="4.83381">
        <ele>309</ele>
        <time>2008-08-24T11:14:30Z</time>
      </trkpt>
      <trkpt lat="44.39668" lon="4.83473">
        <ele>303</ele>
        <time>2008-08-24T11:15:12Z</time>
      </trkpt>
      <trkpt lat="44.39688" lon="4.8348">
        <ele>303</ele>
        <time>2008-08-24T11:15:15Z</time>
      </trkpt>
      <trkpt lat="44.39721" lon="4.83494">
        <ele>303</ele>
        <time>2008-08-24T11:15:23Z</time>
      </trkpt>
      <trkpt lat="44.39798" lon="4.8351">
        <ele>308</ele>
        <time>2008-08-24T11:15:39Z</time>
      </trkpt>
      <trkpt lat="44.39813" lon="4.83544">
        <ele>307</ele>
        <time>2008-08-24T11:15:45Z</time>
      </trkpt>
      <trkpt lat="44.39841" lon="4.83602">
        <ele>303</ele>
        <time>2008-08-24T11:16:03Z</time>
      </trkpt>
      <trkpt lat="44.39869" lon="4.83667">
        <ele>301</ele>
        <time>2008-08-24T11:16:18Z</time>
      </trkpt>
      <trkpt lat="44.39891" lon="4.83761">
        <ele>298</ele>
        <time>2008-08-24T11:16:37Z</time>
      </trkpt>
      <trkpt lat="44.39882" lon="4.83763">
        <ele>299</ele>
        <time>2008-08-24T11:16:42Z</time>
      </trkpt>
      <trkpt lat="44.3982" lon="4.83761">
        <ele>300</ele>
        <time>2008-08-24T11:17:01Z</time>
      </trkpt>
      <trkpt lat="44.39738" lon="4.83748">
        <ele>302</ele>
        <time>2008-08-24T11:17:22Z</time>
      </trkpt>
      <trkpt lat="44.39685" lon="4.83714">
        <ele>302</ele>
        <time>2008-08-24T11:17:37Z</time>
      </trkpt>
      <trkpt lat="44.39678" lon="4.83711">
        <ele>296</ele>
        <time>2008-08-24T11:17:56Z</time>
      </trkpt>
      <trkpt lat="44.3968" lon="4.83712">
        <ele>303</ele>
        <time>2008-08-24T11:17:57Z</time>
      </trkpt>
      <trkpt lat="44.3968" lon="4.83712">
        <ele>303</ele>
        <time>2008-08-24T11:18:05Z</time>
      </trkpt>
      <trkpt lat="44.3968" lon="4.83712">
        <ele>302</ele>
        <time>2008-08-24T11:19:28Z</time>
      </trkpt>
      <trkpt lat="44.3968" lon="4.83712">
        <ele>303</ele>
        <time>2008-08-24T11:19:29Z</time>
      </trkpt>
      <trkpt lat="44.3968" lon="4.83712">
        <ele>303</ele>
        <time>2008-08-24T11:19:31Z</time>
      </trkpt>
      <trkpt lat="44.39633" lon="4.83677">
        <ele>303</ele>
        <time>2008-08-24T11:19:38Z</time>
      </trkpt>
      <trkpt lat="44.39631" lon="4.83684">
        <ele>303</ele>
        <time>2008-08-24T11:19:56Z</time>
      </trkpt>
      <trkpt lat="44.39629" lon="4.83682">
        <ele>302</ele>
        <time>2008-08-24T11:20:09Z</time>
      </trkpt>
      <trkpt lat="44.39622" lon="4.83677">
        <ele>302</ele>
        <time>2008-08-24T11:20:13Z</time>
      </trkpt>
      <trkpt lat="44.39565" lon="4.8365">
        <ele>305</ele>
        <time>2008-08-24T11:20:30Z</time>
      </trkpt>
      <trkpt lat="44.39519" lon="4.83635">
        <ele>305</ele>
        <time>2008-08-24T11:20:41Z</time>
      </trkpt>
      <trkpt lat="44.39517" lon="4.83637">
        <ele>304</ele>
        <time>2008-08-24T11:20:43Z</time>
      </trkpt>
      <trkpt lat="44.39517" lon="4.83665">
        <ele>303</ele>
        <time>2008-08-24T11:20:50Z</time>
      </trkpt>
      <trkpt lat="44.39502" lon="4.83712">
        <ele>302</ele>
        <time>2008-08-24T11:20:57Z</time>
      </trkpt>
      <trkpt lat="44.39485" lon="4.8377">
        <ele>301</ele>
        <time>2008-08-24T11:21:05Z</time>
      </trkpt>
      <trkpt lat="44.39483" lon="4.83806">
        <ele>300</ele>
        <time>2008-08-24T11:21:10Z</time>
      </trkpt>
      <trkpt lat="44.39492" lon="4.83849">
        <ele>297</ele>
        <time>2008-08-24T11:21:16Z</time>
      </trkpt>
      <trkpt lat="44.39534" lon="4.83974">
        <ele>294</ele>
        <time>2008-08-24T11:21:32Z</time>
      </trkpt>
      <trkpt lat="44.39599" lon="4.84119">
        <ele>292</ele>
        <time>2008-08-24T11:21:52Z</time>
      </trkpt>
      <trkpt lat="44.39605" lon="4.8413">
        <ele>293</ele>
        <time>2008-08-24T11:21:54Z</time>
      </trkpt>
      <trkpt lat="44.39625" lon="4.84141">
        <ele>290</ele>
        <time>2008-08-24T11:21:58Z</time>
      </trkpt>
      <trkpt lat="44.39646" lon="4.84145">
        <ele>291</ele>
        <time>2008-08-24T11:22:02Z</time>
      </trkpt>
      <trkpt lat="44.39755" lon="4.8413">
        <ele>291</ele>
        <time>2008-08-24T11:22:24Z</time>
      </trkpt>
      <trkpt lat="44.39807" lon="4.84137">
        <ele>290</ele>
        <time>2008-08-24T11:22:35Z</time>
      </trkpt>
      <trkpt lat="44.3982" lon="4.84141">
        <ele>290</ele>
        <time>2008-08-24T11:22:38Z</time>
      </trkpt>
      <trkpt lat="44.39869" lon="4.84184">
        <ele>285</ele>
        <time>2008-08-24T11:22:49Z</time>
      </trkpt>
      <trkpt lat="44.39874" lon="4.84188">
        <ele>286</ele>
        <time>2008-08-24T11:22:50Z</time>
      </trkpt>
      <trkpt lat="44.39891" lon="4.8421">
        <ele>285</ele>
        <time>2008-08-24T11:22:54Z</time>
      </trkpt>
      <trkpt lat="44.39923" lon="4.84253">
        <ele>284</ele>
        <time>2008-08-24T11:23:01Z</time>
      </trkpt>
      <trkpt lat="44.39977" lon="4.84325">
        <ele>281</ele>
        <time>2008-08-24T11:23:13Z</time>
      </trkpt>
      <trkpt lat="44.40015" lon="4.84405">
        <ele>278</ele>
        <time>2008-08-24T11:23:24Z</time>
      </trkpt>
      <trkpt lat="44.40047" lon="4.84482">
        <ele>277</ele>
        <time>2008-08-24T11:23:35Z</time>
      </trkpt>
      <trkpt lat="44.40086" lon="4.84546">
        <ele>273</ele>
        <time>2008-08-24T11:23:46Z</time>
      </trkpt>
      <trkpt lat="44.40114" lon="4.84607">
        <ele>273</ele>
        <time>2008-08-24T11:24:00Z</time>
      </trkpt>
      <trkpt lat="44.40101" lon="4.84632">
        <ele>272</ele>
        <time>2008-08-24T11:24:06Z</time>
      </trkpt>
      <trkpt lat="44.40097" lon="4.84656">
        <ele>271</ele>
        <time>2008-08-24T11:24:10Z</time>
      </trkpt>
      <trkpt lat="44.40105" lon="4.84789">
        <ele>269</ele>
        <time>2008-08-24T11:24:31Z</time>
      </trkpt>
      <trkpt lat="44.40112" lon="4.84804">
        <ele>269</ele>
        <time>2008-08-24T11:24:34Z</time>
      </trkpt>
      <trkpt lat="44.40122" lon="4.84808">
        <ele>267</ele>
        <time>2008-08-24T11:24:37Z</time>
      </trkpt>
      <trkpt lat="44.40133" lon="4.84806">
        <ele>266</ele>
        <time>2008-08-24T11:24:40Z</time>
      </trkpt>
      <trkpt lat="44.40137" lon="4.84815">
        <ele>266</ele>
        <time>2008-08-24T11:24:43Z</time>
      </trkpt>
      <trkpt lat="44.40146" lon="4.84838">
        <ele>265</ele>
        <time>2008-08-24T11:24:47Z</time>
      </trkpt>
      <trkpt lat="44.40198" lon="4.84838">
        <ele>266</ele>
        <time>2008-08-24T11:25:01Z</time>
      </trkpt>
      <trkpt lat="44.4021" lon="4.84847">
        <ele>267</ele>
        <time>2008-08-24T11:25:04Z</time>
      </trkpt>
      <trkpt lat="44.40225" lon="4.84868">
        <ele>265</ele>
        <time>2008-08-24T11:25:08Z</time>
      </trkpt>
      <trkpt lat="44.40234" lon="4.84883">
        <ele>265</ele>
        <time>2008-08-24T11:25:11Z</time>
      </trkpt>
      <trkpt lat="44.40236" lon="4.84896">
        <ele>264</ele>
        <time>2008-08-24T11:25:13Z</time>
      </trkpt>
      <trkpt lat="44.40251" lon="4.84969">
        <ele>261</ele>
        <time>2008-08-24T11:25:23Z</time>
      </trkpt>
      <trkpt lat="44.40264" lon="4.85023">
        <ele>258</ele>
        <time>2008-08-24T11:25:31Z</time>
      </trkpt>
      <trkpt lat="44.4029" lon="4.85096">
        <ele>254</ele>
        <time>2008-08-24T11:25:41Z</time>
      </trkpt>
      <trkpt lat="44.40309" lon="4.85162">
        <ele>252</ele>
        <time>2008-08-24T11:25:50Z</time>
      </trkpt>
      <trkpt lat="44.40313" lon="4.85177">
        <ele>252</ele>
        <time>2008-08-24T11:25:52Z</time>
      </trkpt>
      <trkpt lat="44.40316" lon="4.85192">
        <ele>251</ele>
        <time>2008-08-24T11:25:55Z</time>
      </trkpt>
      <trkpt lat="44.40316" lon="4.85212">
        <ele>251</ele>
        <time>2008-08-24T11:25:58Z</time>
      </trkpt>
      <trkpt lat="44.4032" lon="4.85229">
        <ele>251</ele>
        <time>2008-08-24T11:26:01Z</time>
      </trkpt>
      <trkpt lat="44.40335" lon="4.85332">
        <ele>248</ele>
        <time>2008-08-24T11:26:18Z</time>
      </trkpt>
      <trkpt lat="44.40333" lon="4.85336">
        <ele>247</ele>
        <time>2008-08-24T11:26:19Z</time>
      </trkpt>
      <trkpt lat="44.40341" lon="4.85358">
        <ele>247</ele>
        <time>2008-08-24T11:26:23Z</time>
      </trkpt>
      <trkpt lat="44.40354" lon="4.85383">
        <ele>247</ele>
        <time>2008-08-24T11:26:27Z</time>
      </trkpt>
      <trkpt lat="44.40365" lon="4.854">
        <ele>246</ele>
        <time>2008-08-24T11:26:30Z</time>
      </trkpt>
      <trkpt lat="44.40388" lon="4.8548">
        <ele>243</ele>
        <time>2008-08-24T11:26:41Z</time>
      </trkpt>
      <trkpt lat="44.40429" lon="4.85589">
        <ele>240</ele>
        <time>2008-08-24T11:26:57Z</time>
      </trkpt>
      <trkpt lat="44.40459" lon="4.85649">
        <ele>239</ele>
        <time>2008-08-24T11:27:08Z</time>
      </trkpt>
      <trkpt lat="44.40483" lon="4.85647">
        <ele>239</ele>
        <time>2008-08-24T11:27:16Z</time>
      </trkpt>
      <trkpt lat="44.40494" lon="4.85639">
        <ele>239</ele>
        <time>2008-08-24T11:27:20Z</time>
      </trkpt>
      <trkpt lat="44.40558" lon="4.85626">
        <ele>238</ele>
        <time>2008-08-24T11:27:37Z</time>
      </trkpt>
      <trkpt lat="44.40562" lon="4.85626">
        <ele>238</ele>
        <time>2008-08-24T11:27:38Z</time>
      </trkpt>
      <trkpt lat="44.40582" lon="4.85604">
        <ele>239</ele>
        <time>2008-08-24T11:27:44Z</time>
      </trkpt>
      <trkpt lat="44.4064" lon="4.85606">
        <ele>239</ele>
        <time>2008-08-24T11:27:56Z</time>
      </trkpt>
      <trkpt lat="44.40738" lon="4.85613">
        <ele>241</ele>
        <time>2008-08-24T11:28:22Z</time>
      </trkpt>
      <trkpt lat="44.4074" lon="4.85611">
        <ele>242</ele>
        <time>2008-08-24T11:28:23Z</time>
      </trkpt>
      <trkpt lat="44.40792" lon="4.85606">
        <ele>244</ele>
        <time>2008-08-24T11:28:42Z</time>
      </trkpt>
      <trkpt lat="44.40811" lon="4.85574">
        <ele>245</ele>
        <time>2008-08-24T11:28:53Z</time>
      </trkpt>
      <trkpt lat="44.40809" lon="4.85566">
        <ele>245</ele>
        <time>2008-08-24T11:28:55Z</time>
      </trkpt>
      <trkpt lat="44.40803" lon="4.85525">
        <ele>246</ele>
        <time>2008-08-24T11:29:05Z</time>
      </trkpt>
      <trkpt lat="44.40856" lon="4.85503">
        <ele>246</ele>
        <time>2008-08-24T11:29:23Z</time>
      </trkpt>
      <trkpt lat="44.40886" lon="4.85525">
        <ele>245</ele>
        <time>2008-08-24T11:29:32Z</time>
      </trkpt>
      <trkpt lat="44.4091" lon="4.85542">
        <ele>244</ele>
        <time>2008-08-24T11:29:38Z</time>
      </trkpt>
      <trkpt lat="44.40925" lon="4.85557">
        <ele>245</ele>
        <time>2008-08-24T11:29:42Z</time>
      </trkpt>
      <trkpt lat="44.40983" lon="4.85626">
        <ele>243</ele>
        <time>2008-08-24T11:30:01Z</time>
      </trkpt>
      <trkpt lat="44.40985" lon="4.8563">
        <ele>243</ele>
        <time>2008-08-24T11:30:02Z</time>
      </trkpt>
      <trkpt lat="44.41017" lon="4.85637">
        <ele>242</ele>
        <time>2008-08-24T11:30:09Z</time>
      </trkpt>
      <trkpt lat="44.41024" lon="4.85645">
        <ele>242</ele>
        <time>2008-08-24T11:30:11Z</time>
      </trkpt>
      <trkpt lat="44.41082" lon="4.85714">
        <ele>242</ele>
        <time>2008-08-24T11:30:28Z</time>
      </trkpt>
      <trkpt lat="44.41086" lon="4.85733">
        <ele>241</ele>
        <time>2008-08-24T11:30:32Z</time>
      </trkpt>
      <trkpt lat="44.41071" lon="4.85785">
        <ele>240</ele>
        <time>2008-08-24T11:30:41Z</time>
      </trkpt>
      <trkpt lat="44.41064" lon="4.8581">
        <ele>239</ele>
        <time>2008-08-24T11:30:45Z</time>
      </trkpt>
      <trkpt lat="44.41056" lon="4.85888">
        <ele>234</ele>
        <time>2008-08-24T11:30:55Z</time>
      </trkpt>
      <trkpt lat="44.41043" lon="4.85948">
        <ele>234</ele>
        <time>2008-08-24T11:31:04Z</time>
      </trkpt>
      <trkpt lat="44.41024" lon="4.86057">
        <ele>229</ele>
        <time>2008-08-24T11:31:22Z</time>
      </trkpt>
      <trkpt lat="44.41021" lon="4.86132">
        <ele>228</ele>
        <time>2008-08-24T11:31:35Z</time>
      </trkpt>
      <trkpt lat="44.41006" lon="4.86164">
        <ele>227</ele>
        <time>2008-08-24T11:31:42Z</time>
      </trkpt>
      <trkpt lat="44.40994" lon="4.86218">
        <ele>224</ele>
        <time>2008-08-24T11:31:52Z</time>
      </trkpt>
      <trkpt lat="44.40996" lon="4.86222">
        <ele>224</ele>
        <time>2008-08-24T11:32:03Z</time>
      </trkpt>
      <trkpt lat="44.40994" lon="4.8622">
        <ele>224</ele>
        <time>2008-08-24T11:32:32Z</time>
      </trkpt>
      <trkpt lat="44.40991" lon="4.86216">
        <ele>223</ele>
        <time>2008-08-24T11:33:29Z</time>
      </trkpt>
      <trkpt lat="44.41002" lon="4.86216">
        <ele>224</ele>
        <time>2008-08-24T11:33:45Z</time>
      </trkpt>
      <trkpt lat="44.41004" lon="4.86214">
        <ele>224</ele>
        <time>2008-08-24T11:33:46Z</time>
      </trkpt>
      <trkpt lat="44.41077" lon="4.86201">
        <ele>225</ele>
        <time>2008-08-24T11:34:05Z</time>
      </trkpt>
      <trkpt lat="44.41092" lon="4.86197">
        <ele>226</ele>
        <time>2008-08-24T11:34:09Z</time>
      </trkpt>
      <trkpt lat="44.41176" lon="4.86139">
        <ele>226</ele>
        <time>2008-08-24T11:34:34Z</time>
      </trkpt>
      <trkpt lat="44.41221" lon="4.86134">
        <ele>224</ele>
        <time>2008-08-24T11:34:49Z</time>
      </trkpt>
      <trkpt lat="44.41232" lon="4.8616">
        <ele>225</ele>
        <time>2008-08-24T11:34:53Z</time>
      </trkpt>
      <trkpt lat="44.41253" lon="4.86203">
        <ele>223</ele>
        <time>2008-08-24T11:35:00Z</time>
      </trkpt>
      <trkpt lat="44.41273" lon="4.86244">
        <ele>222</ele>
        <time>2008-08-24T11:35:06Z</time>
      </trkpt>
      <trkpt lat="44.41313" lon="4.86366">
        <ele>218</ele>
        <time>2008-08-24T11:35:19Z</time>
      </trkpt>
      <trkpt lat="44.41378" lon="4.86621">
        <ele>215</ele>
        <time>2008-08-24T11:35:47Z</time>
      </trkpt>
      <trkpt lat="44.41393" lon="4.86716">
        <ele>213</ele>
        <time>2008-08-24T11:35:58Z</time>
      </trkpt>
      <trkpt lat="44.41453" lon="4.86948">
        <ele>213</ele>
        <time>2008-08-24T11:36:28Z</time>
      </trkpt>
      <trkpt lat="44.41438" lon="4.86986">
        <ele>212</ele>
        <time>2008-08-24T11:36:41Z</time>
      </trkpt>
      <trkpt lat="44.41436" lon="4.86993">
        <ele>212</ele>
        <time>2008-08-24T11:37:03Z</time>
      </trkpt>
      <trkpt lat="44.41414" lon="4.87025">
        <ele>211</ele>
        <time>2008-08-24T11:37:45Z</time>
      </trkpt>
      <trkpt lat="44.41399" lon="4.87044">
        <ele>209</ele>
        <time>2008-08-24T11:37:50Z</time>
      </trkpt>
      <trkpt lat="44.41343" lon="4.87109">
        <ele>206</ele>
        <time>2008-08-24T11:38:04Z</time>
      </trkpt>
      <trkpt lat="44.41324" lon="4.87149">
        <ele>204</ele>
        <time>2008-08-24T11:38:11Z</time>
      </trkpt>
      <trkpt lat="44.41315" lon="4.87171">
        <ele>202</ele>
        <time>2008-08-24T11:38:15Z</time>
      </trkpt>
      <trkpt lat="44.41277" lon="4.87177">
        <ele>202</ele>
        <time>2008-08-24T11:38:23Z</time>
      </trkpt>
      <trkpt lat="44.41187" lon="4.87216">
        <ele>199</ele>
        <time>2008-08-24T11:38:41Z</time>
      </trkpt>
      <trkpt lat="44.41167" lon="4.8722">
        <ele>199</ele>
        <time>2008-08-24T11:38:46Z</time>
      </trkpt>
      <trkpt lat="44.41159" lon="4.87222">
        <ele>199</ele>
        <time>2008-08-24T11:38:48Z</time>
      </trkpt>
      <trkpt lat="44.41137" lon="4.87237">
        <ele>197</ele>
        <time>2008-08-24T11:38:53Z</time>
      </trkpt>
      <trkpt lat="44.41129" lon="4.87246">
        <ele>196</ele>
        <time>2008-08-24T11:38:55Z</time>
      </trkpt>
      <trkpt lat="44.41105" lon="4.87252">
        <ele>197</ele>
        <time>2008-08-24T11:39:00Z</time>
      </trkpt>
      <trkpt lat="44.4106" lon="4.87248">
        <ele>197</ele>
        <time>2008-08-24T11:39:09Z</time>
      </trkpt>
      <trkpt lat="44.41034" lon="4.87265">
        <ele>196</ele>
        <time>2008-08-24T11:39:15Z</time>
      </trkpt>
      <trkpt lat="44.41" lon="4.87272">
        <ele>194</ele>
        <time>2008-08-24T11:39:24Z</time>
      </trkpt>
      <trkpt lat="44.40944" lon="4.87345">
        <ele>192</ele>
        <time>2008-08-24T11:39:41Z</time>
      </trkpt>
      <trkpt lat="44.40856" lon="4.87407">
        <ele>190</ele>
        <time>2008-08-24T11:39:59Z</time>
      </trkpt>
      <trkpt lat="44.40839" lon="4.87415">
        <ele>190</ele>
        <time>2008-08-24T11:40:02Z</time>
      </trkpt>
      <trkpt lat="44.40828" lon="4.8742">
        <ele>191</ele>
        <time>2008-08-24T11:40:04Z</time>
      </trkpt>
      <trkpt lat="44.40822" lon="4.87422">
        <ele>191</ele>
        <time>2008-08-24T11:40:05Z</time>
      </trkpt>
      <trkpt lat="44.40798" lon="4.87439">
        <ele>190</ele>
        <time>2008-08-24T11:40:10Z</time>
      </trkpt>
      <trkpt lat="44.4076" lon="4.87488">
        <ele>191</ele>
        <time>2008-08-24T11:40:20Z</time>
      </trkpt>
      <trkpt lat="44.40751" lon="4.87499">
        <ele>190</ele>
        <time>2008-08-24T11:40:22Z</time>
      </trkpt>
      <trkpt lat="44.40689" lon="4.87596">
        <ele>194</ele>
        <time>2008-08-24T11:40:41Z</time>
      </trkpt>
      <trkpt lat="44.40674" lon="4.87619">
        <ele>193</ele>
        <time>2008-08-24T11:40:45Z</time>
      </trkpt>
      <trkpt lat="44.40667" lon="4.87641">
        <ele>195</ele>
        <time>2008-08-24T11:40:48Z</time>
      </trkpt>
      <trkpt lat="44.40667" lon="4.87656">
        <ele>193</ele>
        <time>2008-08-24T11:40:50Z</time>
      </trkpt>
      <trkpt lat="44.40667" lon="4.87681">
        <ele>192</ele>
        <time>2008-08-24T11:40:54Z</time>
      </trkpt>
      <trkpt lat="44.40667" lon="4.87692">
        <ele>190</ele>
        <time>2008-08-24T11:40:56Z</time>
      </trkpt>
      <trkpt lat="44.40661" lon="4.8772">
        <ele>190</ele>
        <time>2008-08-24T11:41:01Z</time>
      </trkpt>
      <trkpt lat="44.40644" lon="4.8781">
        <ele>190</ele>
        <time>2008-08-24T11:41:18Z</time>
      </trkpt>
      <trkpt lat="44.40635" lon="4.87817">
        <ele>190</ele>
        <time>2008-08-24T11:41:22Z</time>
      </trkpt>
      <trkpt lat="44.4062" lon="4.87817">
        <ele>191</ele>
        <time>2008-08-24T11:41:32Z</time>
      </trkpt>
      <trkpt lat="44.40614" lon="4.87819">
        <ele>193</ele>
        <time>2008-08-24T11:41:35Z</time>
      </trkpt>
      <trkpt lat="44.40582" lon="4.87845">
        <ele>193</ele>
        <time>2008-08-24T11:41:52Z</time>
      </trkpt>
      <trkpt lat="44.40584" lon="4.87845">
        <ele>194</ele>
        <time>2008-08-24T11:42:19Z</time>
      </trkpt>
      <trkpt lat="44.40547" lon="4.87849">
        <ele>195</ele>
        <time>2008-08-24T11:42:34Z</time>
      </trkpt>
      <trkpt lat="44.40485" lon="4.87821">
        <ele>196</ele>
        <time>2008-08-24T11:42:53Z</time>
      </trkpt>
      <trkpt lat="44.4041" lon="4.87804">
        <ele>197</ele>
        <time>2008-08-24T11:43:14Z</time>
      </trkpt>
      <trkpt lat="44.40365" lon="4.87804">
        <ele>200</ele>
        <time>2008-08-24T11:43:26Z</time>
      </trkpt>
      <trkpt lat="44.40273" lon="4.8781">
        <ele>202</ele>
        <time>2008-08-24T11:43:52Z</time>
      </trkpt>
      <trkpt lat="44.40249" lon="4.87817">
        <ele>202</ele>
        <time>2008-08-24T11:43:58Z</time>
      </trkpt>
      <trkpt lat="44.4012" lon="4.87808">
        <ele>203</ele>
        <time>2008-08-24T11:44:25Z</time>
      </trkpt>
      <trkpt lat="44.40064" lon="4.87812">
        <ele>202</ele>
        <time>2008-08-24T11:44:37Z</time>
      </trkpt>
      <trkpt lat="44.40047" lon="4.87842">
        <ele>202</ele>
        <time>2008-08-24T11:44:47Z</time>
      </trkpt>
      <trkpt lat="44.40023" lon="4.87859">
        <ele>192</ele>
        <time>2008-08-24T11:45:09Z</time>
      </trkpt>
      <trkpt lat="44.39995" lon="4.8787">
        <ele>191</ele>
        <time>2008-08-24T11:45:38Z</time>
      </trkpt>
      <trkpt lat="44.39974" lon="4.87877">
        <ele>198</ele>
        <time>2008-08-24T11:45:42Z</time>
      </trkpt>
      <trkpt lat="44.39934" lon="4.87926">
        <ele>195</ele>
        <time>2008-08-24T11:45:50Z</time>
      </trkpt>
      <trkpt lat="44.39904" lon="4.8796">
        <ele>195</ele>
        <time>2008-08-24T11:45:57Z</time>
      </trkpt>
      <trkpt lat="44.39897" lon="4.8795">
        <ele>194</ele>
        <time>2008-08-24T11:46:01Z</time>
      </trkpt>
      <trkpt lat="44.39895" lon="4.87864">
        <ele>195</ele>
        <time>2008-08-24T11:46:15Z</time>
      </trkpt>
      <trkpt lat="44.39882" lon="4.87855">
        <ele>194</ele>
        <time>2008-08-24T11:46:19Z</time>
      </trkpt>
      <trkpt lat="44.39766" lon="4.87866">
        <ele>193</ele>
        <time>2008-08-24T11:46:40Z</time>
      </trkpt>
      <trkpt lat="44.39755" lon="4.87868">
        <ele>193</ele>
        <time>2008-08-24T11:46:42Z</time>
      </trkpt>
      <trkpt lat="44.3974" lon="4.87864">
        <ele>193</ele>
        <time>2008-08-24T11:46:45Z</time>
      </trkpt>
      <trkpt lat="44.39721" lon="4.87845">
        <ele>192</ele>
        <time>2008-08-24T11:46:49Z</time>
      </trkpt>
      <trkpt lat="44.39702" lon="4.87806">
        <ele>188</ele>
        <time>2008-08-24T11:46:54Z</time>
      </trkpt>
      <trkpt lat="44.39698" lon="4.87797">
        <ele>189</ele>
        <time>2008-08-24T11:46:55Z</time>
      </trkpt>
      <trkpt lat="44.3968" lon="4.87729">
        <ele>186</ele>
        <time>2008-08-24T11:47:03Z</time>
      </trkpt>
    </trkseg>
  </trk>
</gpx>